<?xml version="1.0" encoding="UTF-8" standalone="no" ?>
<gpx xmlns="http://www.topografix.com/GPX/1/1" xmlns:xsi="http://www.w3.org/2001/XMLSchema-instance" xsi:schemaLocation="http://www.topografix.com/GPX/1/1 http://www.topografix.com/GPX/1/1/gpx.xsd" version="1.1" creator="VisuGPX - https://www.visugpx.com">
  <metadata>
    <name>boucle landeda ploudalmezeau</name>
  </metadata>
  <trk>
    <name><![CDATA[boucle landeda ploudalmezeau_1]]></name>
    <trkseg>
      <trkpt lat="48.56771" lon="-4.7082">
        <ele>1</ele>
      </trkpt>
      <trkpt lat="48.56771" lon="-4.7082">
        <ele>1</ele>
      </trkpt>
    </trkseg>
  </trk>
  <trk>
    <name><![CDATA[boucle landeda ploudalmezeau_2]]></name>
    <trkseg>
      <trkpt lat="48.59132" lon="-4.59811">
        <ele>6.96</ele>
        <time>2019-05-27T06:41:05Z</time>
      </trkpt>
      <trkpt lat="48.59084" lon="-4.59859">
        <ele>7.67</ele>
        <time>2019-05-27T06:41:23Z</time>
      </trkpt>
      <trkpt lat="48.59041" lon="-4.59915">
        <ele>7.51</ele>
        <time>2019-05-27T06:41:38Z</time>
      </trkpt>
      <trkpt lat="48.58995" lon="-4.5999">
        <ele>6.96</ele>
        <time>2019-05-27T06:41:56Z</time>
      </trkpt>
      <trkpt lat="48.58981" lon="-4.60011">
        <ele>6.03</ele>
        <time>2019-05-27T06:42:01Z</time>
      </trkpt>
      <trkpt lat="48.58977" lon="-4.60014">
        <ele>5.85</ele>
        <time>2019-05-27T06:42:02Z</time>
      </trkpt>
      <trkpt lat="48.58973" lon="-4.60017">
        <ele>5.62</ele>
        <time>2019-05-27T06:42:03Z</time>
      </trkpt>
      <trkpt lat="48.58969" lon="-4.6002">
        <ele>5.34</ele>
        <time>2019-05-27T06:42:04Z</time>
      </trkpt>
      <trkpt lat="48.58964" lon="-4.60021">
        <ele>5.33</ele>
        <time>2019-05-27T06:42:05Z</time>
      </trkpt>
      <trkpt lat="48.5896" lon="-4.60022">
        <ele>5.17</ele>
        <time>2019-05-27T06:42:06Z</time>
      </trkpt>
      <trkpt lat="48.58956" lon="-4.60023">
        <ele>5.01</ele>
        <time>2019-05-27T06:42:07Z</time>
      </trkpt>
      <trkpt lat="48.58951" lon="-4.60022">
        <ele>4.83</ele>
        <time>2019-05-27T06:42:08Z</time>
      </trkpt>
      <trkpt lat="48.58946" lon="-4.6002">
        <ele>4.72</ele>
        <time>2019-05-27T06:42:09Z</time>
      </trkpt>
      <trkpt lat="48.58942" lon="-4.60017">
        <ele>4.67</ele>
        <time>2019-05-27T06:42:10Z</time>
      </trkpt>
      <trkpt lat="48.58938" lon="-4.60013">
        <ele>4.69</ele>
        <time>2019-05-27T06:42:11Z</time>
      </trkpt>
      <trkpt lat="48.58933" lon="-4.60009">
        <ele>4.63</ele>
        <time>2019-05-27T06:42:12Z</time>
      </trkpt>
      <trkpt lat="48.58891" lon="-4.5996">
        <ele>4.92</ele>
        <time>2019-05-27T06:42:24Z</time>
      </trkpt>
      <trkpt lat="48.58851" lon="-4.59904">
        <ele>5.11</ele>
        <time>2019-05-27T06:42:39Z</time>
      </trkpt>
      <trkpt lat="48.58818" lon="-4.59882">
        <ele>4.7</ele>
        <time>2019-05-27T06:42:54Z</time>
      </trkpt>
      <trkpt lat="48.58784" lon="-4.59915">
        <ele>5.38</ele>
        <time>2019-05-27T06:43:07Z</time>
      </trkpt>
      <trkpt lat="48.58723" lon="-4.59963">
        <ele>4.69</ele>
        <time>2019-05-27T06:43:25Z</time>
      </trkpt>
      <trkpt lat="48.58689" lon="-4.59985">
        <ele>4.38</ele>
        <time>2019-05-27T06:43:34Z</time>
      </trkpt>
      <trkpt lat="48.5866" lon="-4.60013">
        <ele>4.04</ele>
        <time>2019-05-27T06:43:42Z</time>
      </trkpt>
      <trkpt lat="48.58656" lon="-4.60015">
        <ele>3.77</ele>
        <time>2019-05-27T06:43:43Z</time>
      </trkpt>
      <trkpt lat="48.58652" lon="-4.60017">
        <ele>4.05</ele>
        <time>2019-05-27T06:43:44Z</time>
      </trkpt>
      <trkpt lat="48.58595" lon="-4.60031">
        <ele>4.43</ele>
        <time>2019-05-27T06:43:57Z</time>
      </trkpt>
      <trkpt lat="48.58521" lon="-4.60094">
        <ele>3.98</ele>
        <time>2019-05-27T06:44:16Z</time>
      </trkpt>
      <trkpt lat="48.5847" lon="-4.60179">
        <ele>4.87</ele>
        <time>2019-05-27T06:44:36Z</time>
      </trkpt>
      <trkpt lat="48.58396" lon="-4.60221">
        <ele>5.28</ele>
        <time>2019-05-27T06:44:58Z</time>
      </trkpt>
      <trkpt lat="48.58301" lon="-4.60256">
        <ele>5.07</ele>
        <time>2019-05-27T06:45:20Z</time>
      </trkpt>
      <trkpt lat="48.58235" lon="-4.60283">
        <ele>5.57</ele>
        <time>2019-05-27T06:45:37Z</time>
      </trkpt>
      <trkpt lat="48.58189" lon="-4.60272">
        <ele>6.87</ele>
        <time>2019-05-27T06:45:52Z</time>
      </trkpt>
      <trkpt lat="48.58148" lon="-4.60273">
        <ele>8.59</ele>
        <time>2019-05-27T06:46:10Z</time>
      </trkpt>
      <trkpt lat="48.58128" lon="-4.60314">
        <ele>9.71</ele>
        <time>2019-05-27T06:46:27Z</time>
      </trkpt>
      <trkpt lat="48.58111" lon="-4.60333">
        <ele>10.14</ele>
        <time>2019-05-27T06:46:39Z</time>
      </trkpt>
      <trkpt lat="48.58087" lon="-4.60339">
        <ele>12.48</ele>
        <time>2019-05-27T06:46:56Z</time>
      </trkpt>
      <trkpt lat="48.5806" lon="-4.60361">
        <ele>15.74</ele>
        <time>2019-05-27T06:47:24Z</time>
      </trkpt>
      <trkpt lat="48.58058" lon="-4.60383">
        <ele>16.8</ele>
        <time>2019-05-27T06:47:36Z</time>
      </trkpt>
      <trkpt lat="48.58053" lon="-4.60434">
        <ele>18.63</ele>
        <time>2019-05-27T06:47:59Z</time>
      </trkpt>
      <trkpt lat="48.58049" lon="-4.60483">
        <ele>20.36</ele>
        <time>2019-05-27T06:48:21Z</time>
      </trkpt>
      <trkpt lat="48.58042" lon="-4.60493">
        <ele>21.3</ele>
        <time>2019-05-27T06:48:29Z</time>
      </trkpt>
      <trkpt lat="48.58041" lon="-4.60493">
        <ele>21.52</ele>
        <time>2019-05-27T06:48:30Z</time>
      </trkpt>
      <trkpt lat="48.5804" lon="-4.60495">
        <ele>21.76</ele>
        <time>2019-05-27T06:48:31Z</time>
      </trkpt>
      <trkpt lat="48.58039" lon="-4.60497">
        <ele>22.02</ele>
        <time>2019-05-27T06:48:32Z</time>
      </trkpt>
      <trkpt lat="48.58038" lon="-4.60498">
        <ele>22.35</ele>
        <time>2019-05-27T06:48:33Z</time>
      </trkpt>
      <trkpt lat="48.58036" lon="-4.60498">
        <ele>22.58</ele>
        <time>2019-05-27T06:48:34Z</time>
      </trkpt>
      <trkpt lat="48.5803" lon="-4.60499">
        <ele>23.6</ele>
        <time>2019-05-27T06:48:38Z</time>
      </trkpt>
      <trkpt lat="48.58029" lon="-4.60497">
        <ele>24.18</ele>
        <time>2019-05-27T06:48:44Z</time>
      </trkpt>
      <trkpt lat="48.58016" lon="-4.60484">
        <ele>27.39</ele>
        <time>2019-05-27T06:50:00Z</time>
      </trkpt>
      <trkpt lat="48.58015" lon="-4.60483">
        <ele>27.69</ele>
        <time>2019-05-27T06:50:01Z</time>
      </trkpt>
      <trkpt lat="48.57985" lon="-4.60468">
        <ele>31.11</ele>
        <time>2019-05-27T06:50:18Z</time>
      </trkpt>
      <trkpt lat="48.57968" lon="-4.60467">
        <ele>33.45</ele>
        <time>2019-05-27T06:50:31Z</time>
      </trkpt>
      <trkpt lat="48.57963" lon="-4.60467">
        <ele>34.12</ele>
        <time>2019-05-27T06:50:39Z</time>
      </trkpt>
      <trkpt lat="48.57955" lon="-4.60467">
        <ele>35.29</ele>
        <time>2019-05-27T06:50:48Z</time>
      </trkpt>
      <trkpt lat="48.57951" lon="-4.60467">
        <ele>35.4</ele>
        <time>2019-05-27T06:50:53Z</time>
      </trkpt>
      <trkpt lat="48.57949" lon="-4.60467">
        <ele>35.47</ele>
        <time>2019-05-27T06:50:54Z</time>
      </trkpt>
      <trkpt lat="48.57947" lon="-4.60467">
        <ele>35.56</ele>
        <time>2019-05-27T06:50:55Z</time>
      </trkpt>
      <trkpt lat="48.57917" lon="-4.60474">
        <ele>38.88</ele>
        <time>2019-05-27T06:51:13Z</time>
      </trkpt>
      <trkpt lat="48.57895" lon="-4.60485">
        <ele>39.61</ele>
        <time>2019-05-27T06:51:27Z</time>
      </trkpt>
      <trkpt lat="48.57859" lon="-4.60519">
        <ele>39.73</ele>
        <time>2019-05-27T06:51:46Z</time>
      </trkpt>
      <trkpt lat="48.57836" lon="-4.6051">
        <ele>40.01</ele>
        <time>2019-05-27T06:51:57Z</time>
      </trkpt>
      <trkpt lat="48.57824" lon="-4.60463">
        <ele>39.84</ele>
        <time>2019-05-27T06:52:11Z</time>
      </trkpt>
      <trkpt lat="48.57811" lon="-4.60413">
        <ele>39.12</ele>
        <time>2019-05-27T06:52:26Z</time>
      </trkpt>
      <trkpt lat="48.57793" lon="-4.60351">
        <ele>38.8</ele>
        <time>2019-05-27T06:52:42Z</time>
      </trkpt>
      <trkpt lat="48.57814" lon="-4.60323">
        <ele>39.35</ele>
        <time>2019-05-27T06:52:52Z</time>
      </trkpt>
      <trkpt lat="48.57838" lon="-4.60266">
        <ele>38.45</ele>
        <time>2019-05-27T06:53:07Z</time>
      </trkpt>
      <trkpt lat="48.57831" lon="-4.60187">
        <ele>37.65</ele>
        <time>2019-05-27T06:53:22Z</time>
      </trkpt>
      <trkpt lat="48.57823" lon="-4.60107">
        <ele>37.44</ele>
        <time>2019-05-27T06:53:41Z</time>
      </trkpt>
      <trkpt lat="48.57808" lon="-4.60026">
        <ele>37.36</ele>
        <time>2019-05-27T06:54:00Z</time>
      </trkpt>
      <trkpt lat="48.57807" lon="-4.59942">
        <ele>37.88</ele>
        <time>2019-05-27T06:54:17Z</time>
      </trkpt>
      <trkpt lat="48.57796" lon="-4.59872">
        <ele>38.46</ele>
        <time>2019-05-27T06:54:34Z</time>
      </trkpt>
      <trkpt lat="48.57794" lon="-4.59815">
        <ele>39.02</ele>
        <time>2019-05-27T06:54:50Z</time>
      </trkpt>
      <trkpt lat="48.57792" lon="-4.59724">
        <ele>40.8</ele>
        <time>2019-05-27T06:55:11Z</time>
      </trkpt>
      <trkpt lat="48.5777" lon="-4.59685">
        <ele>40.21</ele>
        <time>2019-05-27T06:55:26Z</time>
      </trkpt>
      <trkpt lat="48.5776" lon="-4.59622">
        <ele>41.94</ele>
        <time>2019-05-27T06:55:45Z</time>
      </trkpt>
      <trkpt lat="48.57751" lon="-4.59556">
        <ele>45.8</ele>
        <time>2019-05-27T06:56:03Z</time>
      </trkpt>
      <trkpt lat="48.57746" lon="-4.59546">
        <ele>46.74</ele>
        <time>2019-05-27T06:56:07Z</time>
      </trkpt>
      <trkpt lat="48.57744" lon="-4.59546">
        <ele>46.7</ele>
        <time>2019-05-27T06:56:08Z</time>
      </trkpt>
      <trkpt lat="48.57723" lon="-4.59538">
        <ele>46.66</ele>
        <time>2019-05-27T06:56:19Z</time>
      </trkpt>
      <trkpt lat="48.57709" lon="-4.59477">
        <ele>45.1</ele>
        <time>2019-05-27T06:56:34Z</time>
      </trkpt>
      <trkpt lat="48.57689" lon="-4.59378">
        <ele>40.48</ele>
        <time>2019-05-27T06:56:46Z</time>
      </trkpt>
      <trkpt lat="48.57654" lon="-4.59221">
        <ele>38.62</ele>
        <time>2019-05-27T06:57:02Z</time>
      </trkpt>
      <trkpt lat="48.57645" lon="-4.59132">
        <ele>38.15</ele>
        <time>2019-05-27T06:57:16Z</time>
      </trkpt>
      <trkpt lat="48.57642" lon="-4.5912">
        <ele>37.7</ele>
        <time>2019-05-27T06:57:18Z</time>
      </trkpt>
      <trkpt lat="48.5764" lon="-4.59115">
        <ele>37.43</ele>
        <time>2019-05-27T06:57:19Z</time>
      </trkpt>
      <trkpt lat="48.57637" lon="-4.5911">
        <ele>37.44</ele>
        <time>2019-05-27T06:57:20Z</time>
      </trkpt>
      <trkpt lat="48.57635" lon="-4.59106">
        <ele>37.43</ele>
        <time>2019-05-27T06:57:21Z</time>
      </trkpt>
      <trkpt lat="48.57632" lon="-4.59102">
        <ele>37.51</ele>
        <time>2019-05-27T06:57:22Z</time>
      </trkpt>
      <trkpt lat="48.57592" lon="-4.59026">
        <ele>37.31</ele>
        <time>2019-05-27T06:57:40Z</time>
      </trkpt>
      <trkpt lat="48.57563" lon="-4.59002">
        <ele>38.34</ele>
        <time>2019-05-27T06:57:50Z</time>
      </trkpt>
      <trkpt lat="48.57508" lon="-4.59024">
        <ele>38.92</ele>
        <time>2019-05-27T06:58:08Z</time>
      </trkpt>
      <trkpt lat="48.57473" lon="-4.5904">
        <ele>36.86</ele>
        <time>2019-05-27T06:58:17Z</time>
      </trkpt>
      <trkpt lat="48.57415" lon="-4.59031">
        <ele>30.23</ele>
        <time>2019-05-27T06:58:30Z</time>
      </trkpt>
      <trkpt lat="48.57375" lon="-4.5903">
        <ele>25.59</ele>
        <time>2019-05-27T06:58:38Z</time>
      </trkpt>
      <trkpt lat="48.5735" lon="-4.59027">
        <ele>23.14</ele>
        <time>2019-05-27T06:58:42Z</time>
      </trkpt>
      <trkpt lat="48.57345" lon="-4.59024">
        <ele>22.52</ele>
        <time>2019-05-27T06:58:43Z</time>
      </trkpt>
      <trkpt lat="48.5734" lon="-4.59021">
        <ele>22.16</ele>
        <time>2019-05-27T06:58:44Z</time>
      </trkpt>
      <trkpt lat="48.5727" lon="-4.58983">
        <ele>13.92</ele>
        <time>2019-05-27T06:59:00Z</time>
      </trkpt>
      <trkpt lat="48.57261" lon="-4.58979">
        <ele>12.9</ele>
        <time>2019-05-27T06:59:02Z</time>
      </trkpt>
      <trkpt lat="48.57256" lon="-4.58976">
        <ele>12.35</ele>
        <time>2019-05-27T06:59:03Z</time>
      </trkpt>
      <trkpt lat="48.57244" lon="-4.58971">
        <ele>11.06</ele>
        <time>2019-05-27T06:59:05Z</time>
      </trkpt>
      <trkpt lat="48.57237" lon="-4.5897">
        <ele>10.3</ele>
        <time>2019-05-27T06:59:06Z</time>
      </trkpt>
      <trkpt lat="48.57196" lon="-4.58966">
        <ele>7.74</ele>
        <time>2019-05-27T06:59:13Z</time>
      </trkpt>
      <trkpt lat="48.57192" lon="-4.58963">
        <ele>7.56</ele>
        <time>2019-05-27T06:59:14Z</time>
      </trkpt>
      <trkpt lat="48.57189" lon="-4.58959">
        <ele>7.1</ele>
        <time>2019-05-27T06:59:15Z</time>
      </trkpt>
      <trkpt lat="48.57186" lon="-4.58954">
        <ele>6.83</ele>
        <time>2019-05-27T06:59:16Z</time>
      </trkpt>
      <trkpt lat="48.57184" lon="-4.58948">
        <ele>7.01</ele>
        <time>2019-05-27T06:59:17Z</time>
      </trkpt>
      <trkpt lat="48.5718" lon="-4.58941">
        <ele>7.21</ele>
        <time>2019-05-27T06:59:19Z</time>
      </trkpt>
      <trkpt lat="48.5716" lon="-4.58933">
        <ele>8.22</ele>
        <time>2019-05-27T06:59:31Z</time>
      </trkpt>
      <trkpt lat="48.57137" lon="-4.58927">
        <ele>11.56</ele>
        <time>2019-05-27T06:59:46Z</time>
      </trkpt>
      <trkpt lat="48.57138" lon="-4.58927">
        <ele>11.67</ele>
        <time>2019-05-27T06:59:49Z</time>
      </trkpt>
      <trkpt lat="48.57131" lon="-4.58925">
        <ele>12.33</ele>
        <time>2019-05-27T06:59:58Z</time>
      </trkpt>
      <trkpt lat="48.5713" lon="-4.58924">
        <ele>12.74</ele>
        <time>2019-05-27T06:59:59Z</time>
      </trkpt>
      <trkpt lat="48.57116" lon="-4.58904">
        <ele>16.47</ele>
        <time>2019-05-27T07:00:14Z</time>
      </trkpt>
      <trkpt lat="48.57116" lon="-4.58904">
        <ele>16.94</ele>
        <time>2019-05-27T07:00:16Z</time>
      </trkpt>
      <trkpt lat="48.57111" lon="-4.58896">
        <ele>19.23</ele>
        <time>2019-05-27T07:00:37Z</time>
      </trkpt>
      <trkpt lat="48.5711" lon="-4.58894">
        <ele>19.78</ele>
        <time>2019-05-27T07:00:38Z</time>
      </trkpt>
      <trkpt lat="48.57093" lon="-4.58863">
        <ele>22.85</ele>
        <time>2019-05-27T07:00:55Z</time>
      </trkpt>
      <trkpt lat="48.57078" lon="-4.58827">
        <ele>23.09</ele>
        <time>2019-05-27T07:01:14Z</time>
      </trkpt>
      <trkpt lat="48.57059" lon="-4.58794">
        <ele>23.28</ele>
        <time>2019-05-27T07:01:32Z</time>
      </trkpt>
      <trkpt lat="48.57038" lon="-4.58766">
        <ele>23.94</ele>
        <time>2019-05-27T07:01:48Z</time>
      </trkpt>
      <trkpt lat="48.57018" lon="-4.58737">
        <ele>24.59</ele>
        <time>2019-05-27T07:02:07Z</time>
      </trkpt>
      <trkpt lat="48.56994" lon="-4.58713">
        <ele>24.17</ele>
        <time>2019-05-27T07:02:22Z</time>
      </trkpt>
      <trkpt lat="48.56975" lon="-4.58686">
        <ele>24.12</ele>
        <time>2019-05-27T07:02:39Z</time>
      </trkpt>
      <trkpt lat="48.56971" lon="-4.5868">
        <ele>24.25</ele>
        <time>2019-05-27T07:02:43Z</time>
      </trkpt>
      <trkpt lat="48.5697" lon="-4.58679">
        <ele>24.29</ele>
        <time>2019-05-27T07:02:44Z</time>
      </trkpt>
      <trkpt lat="48.56969" lon="-4.58677">
        <ele>24.32</ele>
        <time>2019-05-27T07:02:45Z</time>
      </trkpt>
      <trkpt lat="48.56944" lon="-4.58646">
        <ele>26.16</ele>
        <time>2019-05-27T07:03:09Z</time>
      </trkpt>
      <trkpt lat="48.56922" lon="-4.58618">
        <ele>29.27</ele>
        <time>2019-05-27T07:03:29Z</time>
      </trkpt>
      <trkpt lat="48.56909" lon="-4.5859">
        <ele>31.14</ele>
        <time>2019-05-27T07:03:45Z</time>
      </trkpt>
      <trkpt lat="48.5689" lon="-4.58538">
        <ele>33.89</ele>
        <time>2019-05-27T07:04:09Z</time>
      </trkpt>
      <trkpt lat="48.56871" lon="-4.58492">
        <ele>35.48</ele>
        <time>2019-05-27T07:04:29Z</time>
      </trkpt>
      <trkpt lat="48.56855" lon="-4.58449">
        <ele>37.54</ele>
        <time>2019-05-27T07:04:49Z</time>
      </trkpt>
      <trkpt lat="48.5684" lon="-4.5841">
        <ele>39.21</ele>
        <time>2019-05-27T07:05:07Z</time>
      </trkpt>
      <trkpt lat="48.56822" lon="-4.58363">
        <ele>39.96</ele>
        <time>2019-05-27T07:05:25Z</time>
      </trkpt>
      <trkpt lat="48.56813" lon="-4.58342">
        <ele>40.26</ele>
        <time>2019-05-27T07:05:36Z</time>
      </trkpt>
      <trkpt lat="48.56812" lon="-4.58342">
        <ele>40.18</ele>
        <time>2019-05-27T07:05:37Z</time>
      </trkpt>
      <trkpt lat="48.5681" lon="-4.58343">
        <ele>40.19</ele>
        <time>2019-05-27T07:05:38Z</time>
      </trkpt>
      <trkpt lat="48.56809" lon="-4.58344">
        <ele>40.08</ele>
        <time>2019-05-27T07:05:39Z</time>
      </trkpt>
      <trkpt lat="48.56807" lon="-4.58346">
        <ele>39.93</ele>
        <time>2019-05-27T07:05:40Z</time>
      </trkpt>
      <trkpt lat="48.56806" lon="-4.58348">
        <ele>39.81</ele>
        <time>2019-05-27T07:05:41Z</time>
      </trkpt>
      <trkpt lat="48.56777" lon="-4.58398">
        <ele>37.34</ele>
        <time>2019-05-27T07:05:58Z</time>
      </trkpt>
      <trkpt lat="48.56734" lon="-4.58447">
        <ele>32.55</ele>
        <time>2019-05-27T07:06:14Z</time>
      </trkpt>
      <trkpt lat="48.56679" lon="-4.58499">
        <ele>26.88</ele>
        <time>2019-05-27T07:06:23Z</time>
      </trkpt>
      <trkpt lat="48.56599" lon="-4.5854">
        <ele>26.69</ele>
        <time>2019-05-27T07:06:34Z</time>
      </trkpt>
      <trkpt lat="48.56546" lon="-4.58556">
        <ele>28.54</ele>
        <time>2019-05-27T07:06:47Z</time>
      </trkpt>
      <trkpt lat="48.56521" lon="-4.58562">
        <ele>29.53</ele>
        <time>2019-05-27T07:07:03Z</time>
      </trkpt>
      <trkpt lat="48.56521" lon="-4.58561">
        <ele>29.58</ele>
        <time>2019-05-27T07:07:08Z</time>
      </trkpt>
      <trkpt lat="48.5652" lon="-4.58553">
        <ele>29.77</ele>
        <time>2019-05-27T07:07:42Z</time>
      </trkpt>
      <trkpt lat="48.5652" lon="-4.5855">
        <ele>29.78</ele>
        <time>2019-05-27T07:07:43Z</time>
      </trkpt>
      <trkpt lat="48.56519" lon="-4.58548">
        <ele>29.92</ele>
        <time>2019-05-27T07:07:44Z</time>
      </trkpt>
      <trkpt lat="48.56518" lon="-4.58545">
        <ele>29.97</ele>
        <time>2019-05-27T07:07:45Z</time>
      </trkpt>
      <trkpt lat="48.56518" lon="-4.58543">
        <ele>30.1</ele>
        <time>2019-05-27T07:07:46Z</time>
      </trkpt>
      <trkpt lat="48.56518" lon="-4.58541">
        <ele>30.16</ele>
        <time>2019-05-27T07:07:47Z</time>
      </trkpt>
      <trkpt lat="48.56518" lon="-4.58538">
        <ele>30.18</ele>
        <time>2019-05-27T07:07:48Z</time>
      </trkpt>
      <trkpt lat="48.56518" lon="-4.58536">
        <ele>30.32</ele>
        <time>2019-05-27T07:07:49Z</time>
      </trkpt>
      <trkpt lat="48.56517" lon="-4.58534">
        <ele>30.46</ele>
        <time>2019-05-27T07:07:50Z</time>
      </trkpt>
      <trkpt lat="48.56517" lon="-4.58531">
        <ele>30.66</ele>
        <time>2019-05-27T07:07:51Z</time>
      </trkpt>
      <trkpt lat="48.56507" lon="-4.58487">
        <ele>33.2</ele>
        <time>2019-05-27T07:08:09Z</time>
      </trkpt>
      <trkpt lat="48.56489" lon="-4.58455">
        <ele>35.34</ele>
        <time>2019-05-27T07:08:28Z</time>
      </trkpt>
      <trkpt lat="48.56473" lon="-4.58429">
        <ele>36.37</ele>
        <time>2019-05-27T07:08:48Z</time>
      </trkpt>
      <trkpt lat="48.56473" lon="-4.58429">
        <ele>36.37</ele>
        <time>2019-05-27T07:08:49Z</time>
      </trkpt>
      <trkpt lat="48.5647" lon="-4.58425">
        <ele>36.81</ele>
        <time>2019-05-27T07:09:29Z</time>
      </trkpt>
      <trkpt lat="48.56469" lon="-4.58423">
        <ele>36.88</ele>
        <time>2019-05-27T07:09:30Z</time>
      </trkpt>
      <trkpt lat="48.56468" lon="-4.58422">
        <ele>36.79</ele>
        <time>2019-05-27T07:09:31Z</time>
      </trkpt>
      <trkpt lat="48.56435" lon="-4.5839">
        <ele>36.84</ele>
        <time>2019-05-27T07:09:49Z</time>
      </trkpt>
      <trkpt lat="48.56404" lon="-4.58359">
        <ele>36.91</ele>
        <time>2019-05-27T07:10:06Z</time>
      </trkpt>
      <trkpt lat="48.56392" lon="-4.58342">
        <ele>37.1</ele>
        <time>2019-05-27T07:10:20Z</time>
      </trkpt>
      <trkpt lat="48.56389" lon="-4.58328">
        <ele>37.17</ele>
        <time>2019-05-27T07:10:25Z</time>
      </trkpt>
      <trkpt lat="48.56388" lon="-4.58324">
        <ele>37.2</ele>
        <time>2019-05-27T07:10:26Z</time>
      </trkpt>
      <trkpt lat="48.56388" lon="-4.5832">
        <ele>37.19</ele>
        <time>2019-05-27T07:10:27Z</time>
      </trkpt>
      <trkpt lat="48.56394" lon="-4.58252">
        <ele>38.05</ele>
        <time>2019-05-27T07:10:45Z</time>
      </trkpt>
      <trkpt lat="48.56395" lon="-4.5818">
        <ele>37.37</ele>
        <time>2019-05-27T07:11:05Z</time>
      </trkpt>
      <trkpt lat="48.56368" lon="-4.58163">
        <ele>35.22</ele>
        <time>2019-05-27T07:11:18Z</time>
      </trkpt>
      <trkpt lat="48.56323" lon="-4.58158">
        <ele>29.85</ele>
        <time>2019-05-27T07:11:37Z</time>
      </trkpt>
      <trkpt lat="48.56311" lon="-4.58152">
        <ele>27.51</ele>
        <time>2019-05-27T07:11:45Z</time>
      </trkpt>
      <trkpt lat="48.56311" lon="-4.58149">
        <ele>27.12</ele>
        <time>2019-05-27T07:11:46Z</time>
      </trkpt>
      <trkpt lat="48.5631" lon="-4.58146">
        <ele>26.62</ele>
        <time>2019-05-27T07:11:47Z</time>
      </trkpt>
      <trkpt lat="48.56309" lon="-4.58142">
        <ele>26.09</ele>
        <time>2019-05-27T07:11:48Z</time>
      </trkpt>
      <trkpt lat="48.5631" lon="-4.58137">
        <ele>25.65</ele>
        <time>2019-05-27T07:11:49Z</time>
      </trkpt>
      <trkpt lat="48.56311" lon="-4.58132">
        <ele>25.23</ele>
        <time>2019-05-27T07:11:50Z</time>
      </trkpt>
      <trkpt lat="48.56325" lon="-4.58064">
        <ele>21.46</ele>
        <time>2019-05-27T07:12:01Z</time>
      </trkpt>
      <trkpt lat="48.56325" lon="-4.58057">
        <ele>21.39</ele>
        <time>2019-05-27T07:12:02Z</time>
      </trkpt>
      <trkpt lat="48.56325" lon="-4.58051">
        <ele>21.56</ele>
        <time>2019-05-27T07:12:03Z</time>
      </trkpt>
      <trkpt lat="48.56324" lon="-4.58044">
        <ele>21.8</ele>
        <time>2019-05-27T07:12:04Z</time>
      </trkpt>
      <trkpt lat="48.56323" lon="-4.58037">
        <ele>21.88</ele>
        <time>2019-05-27T07:12:05Z</time>
      </trkpt>
      <trkpt lat="48.56321" lon="-4.58031">
        <ele>22.19</ele>
        <time>2019-05-27T07:12:06Z</time>
      </trkpt>
      <trkpt lat="48.56319" lon="-4.58025">
        <ele>22.43</ele>
        <time>2019-05-27T07:12:07Z</time>
      </trkpt>
      <trkpt lat="48.56305" lon="-4.57996">
        <ele>24.05</ele>
        <time>2019-05-27T07:12:19Z</time>
      </trkpt>
      <trkpt lat="48.56305" lon="-4.57996">
        <ele>24.09</ele>
        <time>2019-05-27T07:12:22Z</time>
      </trkpt>
      <trkpt lat="48.56299" lon="-4.57999">
        <ele>24.47</ele>
        <time>2019-05-27T07:13:05Z</time>
      </trkpt>
      <trkpt lat="48.56278" lon="-4.58004">
        <ele>22.32</ele>
        <time>2019-05-27T07:13:16Z</time>
      </trkpt>
      <trkpt lat="48.56257" lon="-4.57986">
        <ele>18.37</ele>
        <time>2019-05-27T07:13:26Z</time>
      </trkpt>
      <trkpt lat="48.5626" lon="-4.57969">
        <ele>19.71</ele>
        <time>2019-05-27T07:13:31Z</time>
      </trkpt>
      <trkpt lat="48.56264" lon="-4.5793">
        <ele>22.3</ele>
        <time>2019-05-27T07:13:47Z</time>
      </trkpt>
      <trkpt lat="48.56267" lon="-4.57884">
        <ele>24.84</ele>
        <time>2019-05-27T07:14:05Z</time>
      </trkpt>
      <trkpt lat="48.56258" lon="-4.57822">
        <ele>24.71</ele>
        <time>2019-05-27T07:14:26Z</time>
      </trkpt>
      <trkpt lat="48.56243" lon="-4.57747">
        <ele>23.4</ele>
        <time>2019-05-27T07:14:43Z</time>
      </trkpt>
      <trkpt lat="48.56236" lon="-4.57663">
        <ele>20.67</ele>
        <time>2019-05-27T07:14:59Z</time>
      </trkpt>
      <trkpt lat="48.56235" lon="-4.57574">
        <ele>17.81</ele>
        <time>2019-05-27T07:15:16Z</time>
      </trkpt>
      <trkpt lat="48.56239" lon="-4.57543">
        <ele>18.08</ele>
        <time>2019-05-27T07:15:24Z</time>
      </trkpt>
      <trkpt lat="48.5624" lon="-4.57541">
        <ele>18.32</ele>
        <time>2019-05-27T07:15:25Z</time>
      </trkpt>
      <trkpt lat="48.5624" lon="-4.57538">
        <ele>18.46</ele>
        <time>2019-05-27T07:15:26Z</time>
      </trkpt>
      <trkpt lat="48.56241" lon="-4.57536">
        <ele>18.69</ele>
        <time>2019-05-27T07:15:27Z</time>
      </trkpt>
      <trkpt lat="48.56242" lon="-4.57534">
        <ele>18.9</ele>
        <time>2019-05-27T07:15:28Z</time>
      </trkpt>
      <trkpt lat="48.56243" lon="-4.57531">
        <ele>19.09</ele>
        <time>2019-05-27T07:15:29Z</time>
      </trkpt>
      <trkpt lat="48.56244" lon="-4.57529">
        <ele>19.16</ele>
        <time>2019-05-27T07:15:30Z</time>
      </trkpt>
      <trkpt lat="48.56245" lon="-4.57527">
        <ele>19.37</ele>
        <time>2019-05-27T07:15:31Z</time>
      </trkpt>
      <trkpt lat="48.56245" lon="-4.57525">
        <ele>19.36</ele>
        <time>2019-05-27T07:15:32Z</time>
      </trkpt>
      <trkpt lat="48.56246" lon="-4.57522">
        <ele>19.42</ele>
        <time>2019-05-27T07:15:33Z</time>
      </trkpt>
      <trkpt lat="48.56247" lon="-4.5752">
        <ele>19.51</ele>
        <time>2019-05-27T07:15:34Z</time>
      </trkpt>
      <trkpt lat="48.56248" lon="-4.57518">
        <ele>19.48</ele>
        <time>2019-05-27T07:15:35Z</time>
      </trkpt>
      <trkpt lat="48.56258" lon="-4.57484">
        <ele>18.39</ele>
        <time>2019-05-27T07:15:49Z</time>
      </trkpt>
      <trkpt lat="48.5626" lon="-4.57482">
        <ele>18.37</ele>
        <time>2019-05-27T07:15:50Z</time>
      </trkpt>
      <trkpt lat="48.56262" lon="-4.5748">
        <ele>18.4</ele>
        <time>2019-05-27T07:15:51Z</time>
      </trkpt>
      <trkpt lat="48.56264" lon="-4.57479">
        <ele>18.4</ele>
        <time>2019-05-27T07:15:52Z</time>
      </trkpt>
      <trkpt lat="48.56266" lon="-4.57479">
        <ele>18.43</ele>
        <time>2019-05-27T07:15:53Z</time>
      </trkpt>
      <trkpt lat="48.56268" lon="-4.57479">
        <ele>18.62</ele>
        <time>2019-05-27T07:15:54Z</time>
      </trkpt>
      <trkpt lat="48.56287" lon="-4.57479">
        <ele>19.54</ele>
        <time>2019-05-27T07:16:03Z</time>
      </trkpt>
      <trkpt lat="48.56316" lon="-4.57475">
        <ele>22.66</ele>
        <time>2019-05-27T07:16:14Z</time>
      </trkpt>
      <trkpt lat="48.56332" lon="-4.57472">
        <ele>25</ele>
        <time>2019-05-27T07:16:23Z</time>
      </trkpt>
      <trkpt lat="48.56349" lon="-4.57468">
        <ele>22.65</ele>
        <time>2019-05-27T07:16:33Z</time>
      </trkpt>
      <trkpt lat="48.56351" lon="-4.57467">
        <ele>22.69</ele>
        <time>2019-05-27T07:16:34Z</time>
      </trkpt>
      <trkpt lat="48.5638" lon="-4.57484">
        <ele>22.54</ele>
        <time>2019-05-27T07:16:45Z</time>
      </trkpt>
      <trkpt lat="48.56416" lon="-4.57516">
        <ele>20.49</ele>
        <time>2019-05-27T07:16:56Z</time>
      </trkpt>
      <trkpt lat="48.56454" lon="-4.57519">
        <ele>21.29</ele>
        <time>2019-05-27T07:17:07Z</time>
      </trkpt>
      <trkpt lat="48.56463" lon="-4.57514">
        <ele>21.65</ele>
        <time>2019-05-27T07:17:11Z</time>
      </trkpt>
      <trkpt lat="48.56463" lon="-4.57512">
        <ele>21.71</ele>
        <time>2019-05-27T07:17:12Z</time>
      </trkpt>
      <trkpt lat="48.56463" lon="-4.57509">
        <ele>21.49</ele>
        <time>2019-05-27T07:17:13Z</time>
      </trkpt>
      <trkpt lat="48.56462" lon="-4.57507">
        <ele>21.49</ele>
        <time>2019-05-27T07:17:14Z</time>
      </trkpt>
      <trkpt lat="48.56461" lon="-4.57505">
        <ele>21.35</ele>
        <time>2019-05-27T07:17:15Z</time>
      </trkpt>
      <trkpt lat="48.5646" lon="-4.57504">
        <ele>21.33</ele>
        <time>2019-05-27T07:17:16Z</time>
      </trkpt>
      <trkpt lat="48.56443" lon="-4.57482">
        <ele>22.65</ele>
        <time>2019-05-27T07:17:31Z</time>
      </trkpt>
      <trkpt lat="48.56422" lon="-4.57436">
        <ele>24.53</ele>
        <time>2019-05-27T07:17:51Z</time>
      </trkpt>
      <trkpt lat="48.56416" lon="-4.574">
        <ele>25.61</ele>
        <time>2019-05-27T07:18:07Z</time>
      </trkpt>
      <trkpt lat="48.564" lon="-4.57378">
        <ele>27.35</ele>
        <time>2019-05-27T07:18:22Z</time>
      </trkpt>
      <trkpt lat="48.56376" lon="-4.57368">
        <ele>25.92</ele>
        <time>2019-05-27T07:18:36Z</time>
      </trkpt>
      <trkpt lat="48.56338" lon="-4.57352">
        <ele>22.44</ele>
        <time>2019-05-27T07:18:55Z</time>
      </trkpt>
      <trkpt lat="48.56311" lon="-4.57344">
        <ele>20.55</ele>
        <time>2019-05-27T07:19:09Z</time>
      </trkpt>
      <trkpt lat="48.56285" lon="-4.57337">
        <ele>18.76</ele>
        <time>2019-05-27T07:19:25Z</time>
      </trkpt>
      <trkpt lat="48.56282" lon="-4.57333">
        <ele>18.55</ele>
        <time>2019-05-27T07:19:28Z</time>
      </trkpt>
      <trkpt lat="48.5628" lon="-4.57332">
        <ele>18.51</ele>
        <time>2019-05-27T07:19:29Z</time>
      </trkpt>
      <trkpt lat="48.56279" lon="-4.5733">
        <ele>18.47</ele>
        <time>2019-05-27T07:19:30Z</time>
      </trkpt>
      <trkpt lat="48.56278" lon="-4.57328">
        <ele>18.54</ele>
        <time>2019-05-27T07:19:31Z</time>
      </trkpt>
      <trkpt lat="48.56277" lon="-4.57327">
        <ele>18.39</ele>
        <time>2019-05-27T07:19:32Z</time>
      </trkpt>
      <trkpt lat="48.56275" lon="-4.57325">
        <ele>18.2</ele>
        <time>2019-05-27T07:19:33Z</time>
      </trkpt>
      <trkpt lat="48.56253" lon="-4.57297">
        <ele>16.63</ele>
        <time>2019-05-27T07:19:47Z</time>
      </trkpt>
      <trkpt lat="48.56243" lon="-4.57266">
        <ele>17.07</ele>
        <time>2019-05-27T07:20:00Z</time>
      </trkpt>
      <trkpt lat="48.56243" lon="-4.57263">
        <ele>17.16</ele>
        <time>2019-05-27T07:20:01Z</time>
      </trkpt>
      <trkpt lat="48.56243" lon="-4.57261">
        <ele>17.23</ele>
        <time>2019-05-27T07:20:02Z</time>
      </trkpt>
      <trkpt lat="48.56239" lon="-4.57208">
        <ele>20.48</ele>
        <time>2019-05-27T07:20:22Z</time>
      </trkpt>
      <trkpt lat="48.56239" lon="-4.57173">
        <ele>22.39</ele>
        <time>2019-05-27T07:20:37Z</time>
      </trkpt>
      <trkpt lat="48.56236" lon="-4.57126">
        <ele>24.77</ele>
        <time>2019-05-27T07:20:53Z</time>
      </trkpt>
      <trkpt lat="48.56235" lon="-4.57082">
        <ele>27.74</ele>
        <time>2019-05-27T07:21:09Z</time>
      </trkpt>
      <trkpt lat="48.56231" lon="-4.57044">
        <ele>29.32</ele>
        <time>2019-05-27T07:21:25Z</time>
      </trkpt>
      <trkpt lat="48.56226" lon="-4.56993">
        <ele>31.03</ele>
        <time>2019-05-27T07:21:47Z</time>
      </trkpt>
      <trkpt lat="48.5624" lon="-4.56952">
        <ele>32.06</ele>
        <time>2019-05-27T07:22:03Z</time>
      </trkpt>
      <trkpt lat="48.5625" lon="-4.56916">
        <ele>31.96</ele>
        <time>2019-05-27T07:22:16Z</time>
      </trkpt>
      <trkpt lat="48.56249" lon="-4.56913">
        <ele>32.34</ele>
        <time>2019-05-27T07:22:17Z</time>
      </trkpt>
      <trkpt lat="48.56249" lon="-4.5691">
        <ele>32.73</ele>
        <time>2019-05-27T07:22:18Z</time>
      </trkpt>
      <trkpt lat="48.56248" lon="-4.56907">
        <ele>33.05</ele>
        <time>2019-05-27T07:22:19Z</time>
      </trkpt>
      <trkpt lat="48.56247" lon="-4.56905">
        <ele>33.22</ele>
        <time>2019-05-27T07:22:20Z</time>
      </trkpt>
      <trkpt lat="48.56246" lon="-4.56903">
        <ele>33.26</ele>
        <time>2019-05-27T07:22:21Z</time>
      </trkpt>
      <trkpt lat="48.56246" lon="-4.56901">
        <ele>33.56</ele>
        <time>2019-05-27T07:22:22Z</time>
      </trkpt>
      <trkpt lat="48.56244" lon="-4.56899">
        <ele>33.49</ele>
        <time>2019-05-27T07:22:23Z</time>
      </trkpt>
      <trkpt lat="48.56243" lon="-4.56897">
        <ele>33.62</ele>
        <time>2019-05-27T07:22:24Z</time>
      </trkpt>
      <trkpt lat="48.5622" lon="-4.56864">
        <ele>33.81</ele>
        <time>2019-05-27T07:22:41Z</time>
      </trkpt>
      <trkpt lat="48.56197" lon="-4.56829">
        <ele>31.54</ele>
        <time>2019-05-27T07:22:57Z</time>
      </trkpt>
      <trkpt lat="48.56173" lon="-4.56786">
        <ele>25.54</ele>
        <time>2019-05-27T07:23:10Z</time>
      </trkpt>
      <trkpt lat="48.56173" lon="-4.56779">
        <ele>25.04</ele>
        <time>2019-05-27T07:23:11Z</time>
      </trkpt>
      <trkpt lat="48.56177" lon="-4.56736">
        <ele>21.29</ele>
        <time>2019-05-27T07:23:20Z</time>
      </trkpt>
      <trkpt lat="48.56192" lon="-4.56657">
        <ele>16.45</ele>
        <time>2019-05-27T07:23:34Z</time>
      </trkpt>
      <trkpt lat="48.56206" lon="-4.56637">
        <ele>17.01</ele>
        <time>2019-05-27T07:23:43Z</time>
      </trkpt>
      <trkpt lat="48.56226" lon="-4.56641">
        <ele>20</ele>
        <time>2019-05-27T07:23:58Z</time>
      </trkpt>
      <trkpt lat="48.56228" lon="-4.56641">
        <ele>20.3</ele>
        <time>2019-05-27T07:23:59Z</time>
      </trkpt>
      <trkpt lat="48.56249" lon="-4.56624">
        <ele>23.04</ele>
        <time>2019-05-27T07:24:11Z</time>
      </trkpt>
      <trkpt lat="48.5626" lon="-4.56566">
        <ele>21.64</ele>
        <time>2019-05-27T07:24:24Z</time>
      </trkpt>
      <trkpt lat="48.56278" lon="-4.56512">
        <ele>19.98</ele>
        <time>2019-05-27T07:24:37Z</time>
      </trkpt>
      <trkpt lat="48.56302" lon="-4.56521">
        <ele>22.28</ele>
        <time>2019-05-27T07:24:48Z</time>
      </trkpt>
      <trkpt lat="48.56338" lon="-4.56547">
        <ele>25.6</ele>
        <time>2019-05-27T07:25:08Z</time>
      </trkpt>
      <trkpt lat="48.56384" lon="-4.56555">
        <ele>27</ele>
        <time>2019-05-27T07:25:29Z</time>
      </trkpt>
      <trkpt lat="48.56431" lon="-4.56558">
        <ele>27.81</ele>
        <time>2019-05-27T07:25:49Z</time>
      </trkpt>
      <trkpt lat="48.56474" lon="-4.56581">
        <ele>28.54</ele>
        <time>2019-05-27T07:26:09Z</time>
      </trkpt>
      <trkpt lat="48.56501" lon="-4.56596">
        <ele>30.43</ele>
        <time>2019-05-27T07:26:26Z</time>
      </trkpt>
      <trkpt lat="48.56525" lon="-4.56609">
        <ele>31.08</ele>
        <time>2019-05-27T07:26:43Z</time>
      </trkpt>
      <trkpt lat="48.5654" lon="-4.56617">
        <ele>31.29</ele>
        <time>2019-05-27T07:26:53Z</time>
      </trkpt>
      <trkpt lat="48.5656" lon="-4.56629">
        <ele>32.84</ele>
        <time>2019-05-27T07:27:06Z</time>
      </trkpt>
      <trkpt lat="48.56568" lon="-4.56633">
        <ele>33.5</ele>
        <time>2019-05-27T07:27:11Z</time>
      </trkpt>
      <trkpt lat="48.56578" lon="-4.56633">
        <ele>33.57</ele>
        <time>2019-05-27T07:27:23Z</time>
      </trkpt>
      <trkpt lat="48.5658" lon="-4.56627">
        <ele>33.36</ele>
        <time>2019-05-27T07:27:26Z</time>
      </trkpt>
      <trkpt lat="48.5658" lon="-4.56625">
        <ele>33.31</ele>
        <time>2019-05-27T07:27:27Z</time>
      </trkpt>
      <trkpt lat="48.5658" lon="-4.56622">
        <ele>33.29</ele>
        <time>2019-05-27T07:27:28Z</time>
      </trkpt>
      <trkpt lat="48.5658" lon="-4.56619">
        <ele>33.31</ele>
        <time>2019-05-27T07:27:29Z</time>
      </trkpt>
      <trkpt lat="48.5658" lon="-4.56617">
        <ele>33.27</ele>
        <time>2019-05-27T07:27:30Z</time>
      </trkpt>
      <trkpt lat="48.56575" lon="-4.56559">
        <ele>32.65</ele>
        <time>2019-05-27T07:27:45Z</time>
      </trkpt>
      <trkpt lat="48.56593" lon="-4.56497">
        <ele>31.93</ele>
        <time>2019-05-27T07:27:59Z</time>
      </trkpt>
      <trkpt lat="48.56598" lon="-4.56427">
        <ele>31.22</ele>
        <time>2019-05-27T07:28:16Z</time>
      </trkpt>
      <trkpt lat="48.56596" lon="-4.56415">
        <ele>31.42</ele>
        <time>2019-05-27T07:28:25Z</time>
      </trkpt>
      <trkpt lat="48.5659" lon="-4.56406">
        <ele>31.84</ele>
        <time>2019-05-27T07:29:12Z</time>
      </trkpt>
      <trkpt lat="48.56585" lon="-4.56362">
        <ele>31.94</ele>
        <time>2019-05-27T07:29:22Z</time>
      </trkpt>
      <trkpt lat="48.5659" lon="-4.56276">
        <ele>32.02</ele>
        <time>2019-05-27T07:29:41Z</time>
      </trkpt>
      <trkpt lat="48.56594" lon="-4.56171">
        <ele>32.2</ele>
        <time>2019-05-27T07:30:02Z</time>
      </trkpt>
      <trkpt lat="48.56587" lon="-4.56094">
        <ele>32.31</ele>
        <time>2019-05-27T07:30:19Z</time>
      </trkpt>
      <trkpt lat="48.56574" lon="-4.55989">
        <ele>33.4</ele>
        <time>2019-05-27T07:30:43Z</time>
      </trkpt>
      <trkpt lat="48.56573" lon="-4.55919">
        <ele>33.77</ele>
        <time>2019-05-27T07:30:58Z</time>
      </trkpt>
      <trkpt lat="48.56577" lon="-4.55846">
        <ele>34.06</ele>
        <time>2019-05-27T07:31:15Z</time>
      </trkpt>
      <trkpt lat="48.56578" lon="-4.55772">
        <ele>34.09</ele>
        <time>2019-05-27T07:31:33Z</time>
      </trkpt>
      <trkpt lat="48.56582" lon="-4.55704">
        <ele>32.95</ele>
        <time>2019-05-27T07:31:49Z</time>
      </trkpt>
      <trkpt lat="48.56584" lon="-4.55702">
        <ele>32.98</ele>
        <time>2019-05-27T07:31:50Z</time>
      </trkpt>
      <trkpt lat="48.56586" lon="-4.55701">
        <ele>33.04</ele>
        <time>2019-05-27T07:31:51Z</time>
      </trkpt>
      <trkpt lat="48.56589" lon="-4.55701">
        <ele>33.06</ele>
        <time>2019-05-27T07:31:52Z</time>
      </trkpt>
      <trkpt lat="48.56591" lon="-4.557">
        <ele>33.17</ele>
        <time>2019-05-27T07:31:53Z</time>
      </trkpt>
      <trkpt lat="48.56593" lon="-4.557">
        <ele>33.18</ele>
        <time>2019-05-27T07:31:54Z</time>
      </trkpt>
      <trkpt lat="48.56594" lon="-4.557">
        <ele>33.37</ele>
        <time>2019-05-27T07:31:55Z</time>
      </trkpt>
      <trkpt lat="48.56596" lon="-4.557">
        <ele>33.52</ele>
        <time>2019-05-27T07:31:56Z</time>
      </trkpt>
      <trkpt lat="48.56598" lon="-4.557">
        <ele>33.59</ele>
        <time>2019-05-27T07:31:57Z</time>
      </trkpt>
      <trkpt lat="48.56599" lon="-4.557">
        <ele>33.66</ele>
        <time>2019-05-27T07:31:58Z</time>
      </trkpt>
      <trkpt lat="48.56601" lon="-4.557">
        <ele>33.68</ele>
        <time>2019-05-27T07:31:59Z</time>
      </trkpt>
      <trkpt lat="48.56602" lon="-4.557">
        <ele>33.73</ele>
        <time>2019-05-27T07:32:00Z</time>
      </trkpt>
      <trkpt lat="48.56628" lon="-4.55696">
        <ele>35.56</ele>
        <time>2019-05-27T07:32:16Z</time>
      </trkpt>
      <trkpt lat="48.56652" lon="-4.55688">
        <ele>36.13</ele>
        <time>2019-05-27T07:32:33Z</time>
      </trkpt>
      <trkpt lat="48.5669" lon="-4.55672">
        <ele>37.8</ele>
        <time>2019-05-27T07:32:53Z</time>
      </trkpt>
      <trkpt lat="48.56725" lon="-4.55654">
        <ele>39.03</ele>
        <time>2019-05-27T07:33:10Z</time>
      </trkpt>
      <trkpt lat="48.5675" lon="-4.55627">
        <ele>39.5</ele>
        <time>2019-05-27T07:33:28Z</time>
      </trkpt>
      <trkpt lat="48.5675" lon="-4.55627">
        <ele>39.52</ele>
        <time>2019-05-27T07:33:29Z</time>
      </trkpt>
      <trkpt lat="48.56755" lon="-4.55623">
        <ele>40.69</ele>
        <time>2019-05-27T07:34:11Z</time>
      </trkpt>
      <trkpt lat="48.56778" lon="-4.55572">
        <ele>39.47</ele>
        <time>2019-05-27T07:34:25Z</time>
      </trkpt>
      <trkpt lat="48.56797" lon="-4.55529">
        <ele>38.41</ele>
        <time>2019-05-27T07:34:34Z</time>
      </trkpt>
      <trkpt lat="48.56848" lon="-4.55486">
        <ele>37.1</ele>
        <time>2019-05-27T07:34:49Z</time>
      </trkpt>
      <trkpt lat="48.56903" lon="-4.55449">
        <ele>36.16</ele>
        <time>2019-05-27T07:35:06Z</time>
      </trkpt>
      <trkpt lat="48.56928" lon="-4.55435">
        <ele>35.83</ele>
        <time>2019-05-27T07:35:13Z</time>
      </trkpt>
      <trkpt lat="48.56988" lon="-4.55428">
        <ele>37.01</ele>
        <time>2019-05-27T07:35:30Z</time>
      </trkpt>
      <trkpt lat="48.57015" lon="-4.5538">
        <ele>37.14</ele>
        <time>2019-05-27T07:35:43Z</time>
      </trkpt>
      <trkpt lat="48.57027" lon="-4.55304">
        <ele>35.85</ele>
        <time>2019-05-27T07:35:56Z</time>
      </trkpt>
      <trkpt lat="48.57034" lon="-4.55228">
        <ele>34.85</ele>
        <time>2019-05-27T07:36:06Z</time>
      </trkpt>
      <trkpt lat="48.57036" lon="-4.5522">
        <ele>34.54</ele>
        <time>2019-05-27T07:36:07Z</time>
      </trkpt>
      <trkpt lat="48.57038" lon="-4.55213">
        <ele>34.34</ele>
        <time>2019-05-27T07:36:08Z</time>
      </trkpt>
      <trkpt lat="48.57041" lon="-4.55206">
        <ele>34.27</ele>
        <time>2019-05-27T07:36:09Z</time>
      </trkpt>
      <trkpt lat="48.57045" lon="-4.55199">
        <ele>34.3</ele>
        <time>2019-05-27T07:36:10Z</time>
      </trkpt>
      <trkpt lat="48.57049" lon="-4.55194">
        <ele>34.29</ele>
        <time>2019-05-27T07:36:11Z</time>
      </trkpt>
      <trkpt lat="48.57053" lon="-4.55189">
        <ele>34.26</ele>
        <time>2019-05-27T07:36:12Z</time>
      </trkpt>
      <trkpt lat="48.57058" lon="-4.55185">
        <ele>34.22</ele>
        <time>2019-05-27T07:36:13Z</time>
      </trkpt>
      <trkpt lat="48.57076" lon="-4.55171">
        <ele>34.04</ele>
        <time>2019-05-27T07:36:17Z</time>
      </trkpt>
      <trkpt lat="48.5712" lon="-4.55145">
        <ele>30.22</ele>
        <time>2019-05-27T07:36:27Z</time>
      </trkpt>
      <trkpt lat="48.57143" lon="-4.55139">
        <ele>28.45</ele>
        <time>2019-05-27T07:36:31Z</time>
      </trkpt>
      <trkpt lat="48.57149" lon="-4.5514">
        <ele>28.26</ele>
        <time>2019-05-27T07:36:32Z</time>
      </trkpt>
      <trkpt lat="48.57211" lon="-4.5515">
        <ele>29.22</ele>
        <time>2019-05-27T07:36:44Z</time>
      </trkpt>
      <trkpt lat="48.57233" lon="-4.55145">
        <ele>32.41</ele>
        <time>2019-05-27T07:36:57Z</time>
      </trkpt>
      <trkpt lat="48.57255" lon="-4.55144">
        <ele>35.3</ele>
        <time>2019-05-27T07:37:10Z</time>
      </trkpt>
      <trkpt lat="48.57278" lon="-4.55145">
        <ele>38.49</ele>
        <time>2019-05-27T07:37:28Z</time>
      </trkpt>
      <trkpt lat="48.57287" lon="-4.55144">
        <ele>39.02</ele>
        <time>2019-05-27T07:37:34Z</time>
      </trkpt>
      <trkpt lat="48.57289" lon="-4.55144">
        <ele>39.12</ele>
        <time>2019-05-27T07:37:35Z</time>
      </trkpt>
      <trkpt lat="48.5729" lon="-4.55145">
        <ele>39.39</ele>
        <time>2019-05-27T07:37:36Z</time>
      </trkpt>
      <trkpt lat="48.57292" lon="-4.55145">
        <ele>39.5</ele>
        <time>2019-05-27T07:37:37Z</time>
      </trkpt>
      <trkpt lat="48.57294" lon="-4.55145">
        <ele>39.56</ele>
        <time>2019-05-27T07:37:38Z</time>
      </trkpt>
      <trkpt lat="48.57316" lon="-4.55148">
        <ele>40.64</ele>
        <time>2019-05-27T07:37:54Z</time>
      </trkpt>
      <trkpt lat="48.57336" lon="-4.55148">
        <ele>40.34</ele>
        <time>2019-05-27T07:38:08Z</time>
      </trkpt>
      <trkpt lat="48.57366" lon="-4.55146">
        <ele>40.83</ele>
        <time>2019-05-27T07:38:24Z</time>
      </trkpt>
      <trkpt lat="48.57368" lon="-4.55145">
        <ele>40.98</ele>
        <time>2019-05-27T07:38:29Z</time>
      </trkpt>
      <trkpt lat="48.57371" lon="-4.55141">
        <ele>40.08</ele>
        <time>2019-05-27T07:39:13Z</time>
      </trkpt>
      <trkpt lat="48.57372" lon="-4.55138">
        <ele>40</ele>
        <time>2019-05-27T07:39:14Z</time>
      </trkpt>
      <trkpt lat="48.57373" lon="-4.55134">
        <ele>39.89</ele>
        <time>2019-05-27T07:39:15Z</time>
      </trkpt>
      <trkpt lat="48.57374" lon="-4.5513">
        <ele>39.87</ele>
        <time>2019-05-27T07:39:16Z</time>
      </trkpt>
      <trkpt lat="48.57376" lon="-4.55126">
        <ele>39.82</ele>
        <time>2019-05-27T07:39:17Z</time>
      </trkpt>
      <trkpt lat="48.57377" lon="-4.55122">
        <ele>39.76</ele>
        <time>2019-05-27T07:39:18Z</time>
      </trkpt>
      <trkpt lat="48.57379" lon="-4.55118">
        <ele>39.73</ele>
        <time>2019-05-27T07:39:19Z</time>
      </trkpt>
      <trkpt lat="48.57407" lon="-4.55019">
        <ele>38.91</ele>
        <time>2019-05-27T07:39:37Z</time>
      </trkpt>
      <trkpt lat="48.57417" lon="-4.54876">
        <ele>37.59</ele>
        <time>2019-05-27T07:39:55Z</time>
      </trkpt>
      <trkpt lat="48.57388" lon="-4.54716">
        <ele>37.73</ele>
        <time>2019-05-27T07:40:15Z</time>
      </trkpt>
      <trkpt lat="48.57353" lon="-4.54595">
        <ele>40.92</ele>
        <time>2019-05-27T07:40:34Z</time>
      </trkpt>
      <trkpt lat="48.57333" lon="-4.54531">
        <ele>42.96</ele>
        <time>2019-05-27T07:40:52Z</time>
      </trkpt>
      <trkpt lat="48.57309" lon="-4.54458">
        <ele>45.71</ele>
        <time>2019-05-27T07:41:15Z</time>
      </trkpt>
      <trkpt lat="48.5729" lon="-4.54406">
        <ele>47.15</ele>
        <time>2019-05-27T07:41:34Z</time>
      </trkpt>
      <trkpt lat="48.57264" lon="-4.5434">
        <ele>48.29</ele>
        <time>2019-05-27T07:41:56Z</time>
      </trkpt>
      <trkpt lat="48.57237" lon="-4.54273">
        <ele>49.05</ele>
        <time>2019-05-27T07:42:16Z</time>
      </trkpt>
      <trkpt lat="48.57208" lon="-4.54197">
        <ele>49.07</ele>
        <time>2019-05-27T07:42:37Z</time>
      </trkpt>
      <trkpt lat="48.57171" lon="-4.541">
        <ele>48.13</ele>
        <time>2019-05-27T07:42:58Z</time>
      </trkpt>
      <trkpt lat="48.57129" lon="-4.53987">
        <ele>47.39</ele>
        <time>2019-05-27T07:43:20Z</time>
      </trkpt>
      <trkpt lat="48.57108" lon="-4.53932">
        <ele>46.96</ele>
        <time>2019-05-27T07:43:30Z</time>
      </trkpt>
      <trkpt lat="48.5707" lon="-4.53805">
        <ele>44.99</ele>
        <time>2019-05-27T07:43:50Z</time>
      </trkpt>
      <trkpt lat="48.5702" lon="-4.53646">
        <ele>42.76</ele>
        <time>2019-05-27T07:44:11Z</time>
      </trkpt>
      <trkpt lat="48.56969" lon="-4.53516">
        <ele>41.76</ele>
        <time>2019-05-27T07:44:30Z</time>
      </trkpt>
      <trkpt lat="48.56966" lon="-4.53511">
        <ele>41.67</ele>
        <time>2019-05-27T07:44:31Z</time>
      </trkpt>
      <trkpt lat="48.56927" lon="-4.53436">
        <ele>41.35</ele>
        <time>2019-05-27T07:44:45Z</time>
      </trkpt>
      <trkpt lat="48.56925" lon="-4.5343">
        <ele>41.51</ele>
        <time>2019-05-27T07:44:46Z</time>
      </trkpt>
      <trkpt lat="48.56883" lon="-4.53353">
        <ele>41.87</ele>
        <time>2019-05-27T07:45:03Z</time>
      </trkpt>
      <trkpt lat="48.56833" lon="-4.53261">
        <ele>41.62</ele>
        <time>2019-05-27T07:45:21Z</time>
      </trkpt>
      <trkpt lat="48.56779" lon="-4.53153">
        <ele>40.48</ele>
        <time>2019-05-27T07:45:40Z</time>
      </trkpt>
      <trkpt lat="48.5672" lon="-4.53016">
        <ele>39.76</ele>
        <time>2019-05-27T07:46:01Z</time>
      </trkpt>
      <trkpt lat="48.56664" lon="-4.52883">
        <ele>39.73</ele>
        <time>2019-05-27T07:46:22Z</time>
      </trkpt>
      <trkpt lat="48.56617" lon="-4.52774">
        <ele>38.95</ele>
        <time>2019-05-27T07:46:41Z</time>
      </trkpt>
      <trkpt lat="48.56561" lon="-4.52665">
        <ele>37.7</ele>
        <time>2019-05-27T07:46:59Z</time>
      </trkpt>
      <trkpt lat="48.56527" lon="-4.52624">
        <ele>37.2</ele>
        <time>2019-05-27T07:47:08Z</time>
      </trkpt>
      <trkpt lat="48.56522" lon="-4.52623">
        <ele>37.09</ele>
        <time>2019-05-27T07:47:09Z</time>
      </trkpt>
      <trkpt lat="48.56517" lon="-4.52624">
        <ele>36.81</ele>
        <time>2019-05-27T07:47:10Z</time>
      </trkpt>
      <trkpt lat="48.56513" lon="-4.52628">
        <ele>36.56</ele>
        <time>2019-05-27T07:47:11Z</time>
      </trkpt>
      <trkpt lat="48.56509" lon="-4.52633">
        <ele>36.49</ele>
        <time>2019-05-27T07:47:12Z</time>
      </trkpt>
      <trkpt lat="48.56506" lon="-4.52639">
        <ele>36.72</ele>
        <time>2019-05-27T07:47:13Z</time>
      </trkpt>
      <trkpt lat="48.56503" lon="-4.52646">
        <ele>36.84</ele>
        <time>2019-05-27T07:47:14Z</time>
      </trkpt>
      <trkpt lat="48.56501" lon="-4.52652">
        <ele>36.98</ele>
        <time>2019-05-27T07:47:15Z</time>
      </trkpt>
      <trkpt lat="48.5648" lon="-4.52747">
        <ele>38.77</ele>
        <time>2019-05-27T07:47:32Z</time>
      </trkpt>
      <trkpt lat="48.5645" lon="-4.52857">
        <ele>40.42</ele>
        <time>2019-05-27T07:47:57Z</time>
      </trkpt>
      <trkpt lat="48.5641" lon="-4.52941">
        <ele>39.32</ele>
        <time>2019-05-27T07:48:13Z</time>
      </trkpt>
      <trkpt lat="48.56332" lon="-4.53067">
        <ele>37.66</ele>
        <time>2019-05-27T07:48:33Z</time>
      </trkpt>
      <trkpt lat="48.56307" lon="-4.53097">
        <ele>38.01</ele>
        <time>2019-05-27T07:48:39Z</time>
      </trkpt>
      <trkpt lat="48.56239" lon="-4.53152">
        <ele>38.53</ele>
        <time>2019-05-27T07:48:55Z</time>
      </trkpt>
      <trkpt lat="48.56157" lon="-4.53186">
        <ele>37.5</ele>
        <time>2019-05-27T07:49:15Z</time>
      </trkpt>
      <trkpt lat="48.56079" lon="-4.53227">
        <ele>34.34</ele>
        <time>2019-05-27T07:49:29Z</time>
      </trkpt>
      <trkpt lat="48.55983" lon="-4.53296">
        <ele>28.13</ele>
        <time>2019-05-27T07:49:42Z</time>
      </trkpt>
      <trkpt lat="48.55885" lon="-4.53333">
        <ele>21.3</ele>
        <time>2019-05-27T07:49:53Z</time>
      </trkpt>
      <trkpt lat="48.55719" lon="-4.5335">
        <ele>11.16</ele>
        <time>2019-05-27T07:50:09Z</time>
      </trkpt>
      <trkpt lat="48.55594" lon="-4.53366">
        <ele>8.35</ele>
        <time>2019-05-27T07:50:23Z</time>
      </trkpt>
      <trkpt lat="48.55513" lon="-4.53407">
        <ele>9.04</ele>
        <time>2019-05-27T07:50:34Z</time>
      </trkpt>
      <trkpt lat="48.55447" lon="-4.53461">
        <ele>9.07</ele>
        <time>2019-05-27T07:50:48Z</time>
      </trkpt>
      <trkpt lat="48.5535" lon="-4.53541">
        <ele>7.68</ele>
        <time>2019-05-27T07:51:11Z</time>
      </trkpt>
      <trkpt lat="48.5531" lon="-4.53564">
        <ele>9.43</ele>
        <time>2019-05-27T07:51:25Z</time>
      </trkpt>
      <trkpt lat="48.55283" lon="-4.53584">
        <ele>12.3</ele>
        <time>2019-05-27T07:51:40Z</time>
      </trkpt>
      <trkpt lat="48.55268" lon="-4.53611">
        <ele>13.53</ele>
        <time>2019-05-27T07:51:56Z</time>
      </trkpt>
      <trkpt lat="48.55254" lon="-4.53656">
        <ele>15.64</ele>
        <time>2019-05-27T07:52:18Z</time>
      </trkpt>
      <trkpt lat="48.55253" lon="-4.537">
        <ele>17.56</ele>
        <time>2019-05-27T07:52:39Z</time>
      </trkpt>
      <trkpt lat="48.55255" lon="-4.53745">
        <ele>19.37</ele>
        <time>2019-05-27T07:52:59Z</time>
      </trkpt>
      <trkpt lat="48.55256" lon="-4.53779">
        <ele>20.91</ele>
        <time>2019-05-27T07:53:19Z</time>
      </trkpt>
      <trkpt lat="48.55257" lon="-4.53785">
        <ele>21.44</ele>
        <time>2019-05-27T07:53:29Z</time>
      </trkpt>
      <trkpt lat="48.55257" lon="-4.53787">
        <ele>21.52</ele>
        <time>2019-05-27T07:53:30Z</time>
      </trkpt>
      <trkpt lat="48.55257" lon="-4.53789">
        <ele>21.62</ele>
        <time>2019-05-27T07:53:31Z</time>
      </trkpt>
      <trkpt lat="48.55243" lon="-4.53823">
        <ele>23.1</ele>
        <time>2019-05-27T07:53:49Z</time>
      </trkpt>
      <trkpt lat="48.55219" lon="-4.53837">
        <ele>23.28</ele>
        <time>2019-05-27T07:54:07Z</time>
      </trkpt>
      <trkpt lat="48.55191" lon="-4.53842">
        <ele>25.84</ele>
        <time>2019-05-27T07:54:26Z</time>
      </trkpt>
      <trkpt lat="48.5519" lon="-4.53848">
        <ele>26.48</ele>
        <time>2019-05-27T07:54:29Z</time>
      </trkpt>
      <trkpt lat="48.55192" lon="-4.53878">
        <ele>28.36</ele>
        <time>2019-05-27T07:54:47Z</time>
      </trkpt>
      <trkpt lat="48.5519" lon="-4.53883">
        <ele>29.83</ele>
        <time>2019-05-27T07:55:30Z</time>
      </trkpt>
      <trkpt lat="48.5519" lon="-4.53886">
        <ele>29.96</ele>
        <time>2019-05-27T07:55:31Z</time>
      </trkpt>
      <trkpt lat="48.5519" lon="-4.53888">
        <ele>30.05</ele>
        <time>2019-05-27T07:55:32Z</time>
      </trkpt>
      <trkpt lat="48.55197" lon="-4.53943">
        <ele>31.85</ele>
        <time>2019-05-27T07:55:52Z</time>
      </trkpt>
      <trkpt lat="48.55205" lon="-4.54009">
        <ele>32.65</ele>
        <time>2019-05-27T07:56:13Z</time>
      </trkpt>
      <trkpt lat="48.55218" lon="-4.54074">
        <ele>33.03</ele>
        <time>2019-05-27T07:56:33Z</time>
      </trkpt>
      <trkpt lat="48.55234" lon="-4.54138">
        <ele>33.8</ele>
        <time>2019-05-27T07:56:54Z</time>
      </trkpt>
      <trkpt lat="48.55253" lon="-4.54199">
        <ele>33.99</ele>
        <time>2019-05-27T07:57:13Z</time>
      </trkpt>
      <trkpt lat="48.55275" lon="-4.54285">
        <ele>34.93</ele>
        <time>2019-05-27T07:57:39Z</time>
      </trkpt>
      <trkpt lat="48.55288" lon="-4.5437">
        <ele>34.85</ele>
        <time>2019-05-27T07:58:01Z</time>
      </trkpt>
      <trkpt lat="48.55305" lon="-4.5445">
        <ele>35.17</ele>
        <time>2019-05-27T07:58:22Z</time>
      </trkpt>
      <trkpt lat="48.55325" lon="-4.54546">
        <ele>33.6</ele>
        <time>2019-05-27T07:58:42Z</time>
      </trkpt>
      <trkpt lat="48.55326" lon="-4.5456">
        <ele>33.05</ele>
        <time>2019-05-27T07:58:44Z</time>
      </trkpt>
      <trkpt lat="48.5533" lon="-4.54658">
        <ele>28.78</ele>
        <time>2019-05-27T07:58:54Z</time>
      </trkpt>
      <trkpt lat="48.55326" lon="-4.54742">
        <ele>24.94</ele>
        <time>2019-05-27T07:59:01Z</time>
      </trkpt>
      <trkpt lat="48.55324" lon="-4.54754">
        <ele>24.66</ele>
        <time>2019-05-27T07:59:02Z</time>
      </trkpt>
      <trkpt lat="48.55323" lon="-4.54765">
        <ele>24.25</ele>
        <time>2019-05-27T07:59:03Z</time>
      </trkpt>
      <trkpt lat="48.55322" lon="-4.54811">
        <ele>23.48</ele>
        <time>2019-05-27T07:59:07Z</time>
      </trkpt>
      <trkpt lat="48.55315" lon="-4.54897">
        <ele>25.07</ele>
        <time>2019-05-27T07:59:16Z</time>
      </trkpt>
      <trkpt lat="48.55315" lon="-4.54905">
        <ele>25.16</ele>
        <time>2019-05-27T07:59:17Z</time>
      </trkpt>
      <trkpt lat="48.55314" lon="-4.54912">
        <ele>25.36</ele>
        <time>2019-05-27T07:59:18Z</time>
      </trkpt>
      <trkpt lat="48.55313" lon="-4.54926">
        <ele>25.62</ele>
        <time>2019-05-27T07:59:20Z</time>
      </trkpt>
      <trkpt lat="48.55314" lon="-4.54932">
        <ele>25.77</ele>
        <time>2019-05-27T07:59:21Z</time>
      </trkpt>
      <trkpt lat="48.55315" lon="-4.54938">
        <ele>25.93</ele>
        <time>2019-05-27T07:59:22Z</time>
      </trkpt>
      <trkpt lat="48.55317" lon="-4.54944">
        <ele>26.31</ele>
        <time>2019-05-27T07:59:23Z</time>
      </trkpt>
      <trkpt lat="48.55318" lon="-4.5495">
        <ele>26.68</ele>
        <time>2019-05-27T07:59:24Z</time>
      </trkpt>
      <trkpt lat="48.55318" lon="-4.54956">
        <ele>26.92</ele>
        <time>2019-05-27T07:59:25Z</time>
      </trkpt>
      <trkpt lat="48.55318" lon="-4.54961">
        <ele>27.32</ele>
        <time>2019-05-27T07:59:26Z</time>
      </trkpt>
      <trkpt lat="48.55318" lon="-4.54965">
        <ele>27.73</ele>
        <time>2019-05-27T07:59:27Z</time>
      </trkpt>
      <trkpt lat="48.55318" lon="-4.54969">
        <ele>28.13</ele>
        <time>2019-05-27T07:59:28Z</time>
      </trkpt>
      <trkpt lat="48.55317" lon="-4.55032">
        <ele>32.15</ele>
        <time>2019-05-27T07:59:46Z</time>
      </trkpt>
      <trkpt lat="48.55314" lon="-4.55081">
        <ele>35.48</ele>
        <time>2019-05-27T08:00:03Z</time>
      </trkpt>
      <trkpt lat="48.55309" lon="-4.55119">
        <ele>37.28</ele>
        <time>2019-05-27T08:00:18Z</time>
      </trkpt>
      <trkpt lat="48.55304" lon="-4.55165">
        <ele>39.03</ele>
        <time>2019-05-27T08:00:36Z</time>
      </trkpt>
      <trkpt lat="48.55304" lon="-4.552">
        <ele>39.65</ele>
        <time>2019-05-27T08:00:49Z</time>
      </trkpt>
      <trkpt lat="48.55304" lon="-4.55202">
        <ele>39.72</ele>
        <time>2019-05-27T08:00:50Z</time>
      </trkpt>
      <trkpt lat="48.55304" lon="-4.55205">
        <ele>40.01</ele>
        <time>2019-05-27T08:00:51Z</time>
      </trkpt>
      <trkpt lat="48.55307" lon="-4.55248">
        <ele>43.88</ele>
        <time>2019-05-27T08:01:06Z</time>
      </trkpt>
      <trkpt lat="48.5531" lon="-4.5528">
        <ele>45.97</ele>
        <time>2019-05-27T08:01:18Z</time>
      </trkpt>
      <trkpt lat="48.55311" lon="-4.55283">
        <ele>46.2</ele>
        <time>2019-05-27T08:01:19Z</time>
      </trkpt>
      <trkpt lat="48.55312" lon="-4.55285">
        <ele>46.42</ele>
        <time>2019-05-27T08:01:20Z</time>
      </trkpt>
      <trkpt lat="48.55313" lon="-4.55288">
        <ele>46.74</ele>
        <time>2019-05-27T08:01:21Z</time>
      </trkpt>
      <trkpt lat="48.55313" lon="-4.55291">
        <ele>46.96</ele>
        <time>2019-05-27T08:01:22Z</time>
      </trkpt>
      <trkpt lat="48.55314" lon="-4.55294">
        <ele>47.23</ele>
        <time>2019-05-27T08:01:23Z</time>
      </trkpt>
      <trkpt lat="48.55315" lon="-4.55297">
        <ele>47.46</ele>
        <time>2019-05-27T08:01:24Z</time>
      </trkpt>
      <trkpt lat="48.55315" lon="-4.553">
        <ele>47.68</ele>
        <time>2019-05-27T08:01:25Z</time>
      </trkpt>
      <trkpt lat="48.55334" lon="-4.5535">
        <ele>47.18</ele>
        <time>2019-05-27T08:01:40Z</time>
      </trkpt>
      <trkpt lat="48.55356" lon="-4.55394">
        <ele>46.43</ele>
        <time>2019-05-27T08:01:57Z</time>
      </trkpt>
      <trkpt lat="48.5538" lon="-4.55454">
        <ele>46.44</ele>
        <time>2019-05-27T08:02:20Z</time>
      </trkpt>
      <trkpt lat="48.55394" lon="-4.5552">
        <ele>46.38</ele>
        <time>2019-05-27T08:02:41Z</time>
      </trkpt>
      <trkpt lat="48.55399" lon="-4.55574">
        <ele>47.26</ele>
        <time>2019-05-27T08:02:57Z</time>
      </trkpt>
      <trkpt lat="48.55389" lon="-4.55637">
        <ele>48.01</ele>
        <time>2019-05-27T08:03:16Z</time>
      </trkpt>
      <trkpt lat="48.55377" lon="-4.55681">
        <ele>47.59</ele>
        <time>2019-05-27T08:03:34Z</time>
      </trkpt>
      <trkpt lat="48.55375" lon="-4.55682">
        <ele>47.56</ele>
        <time>2019-05-27T08:03:35Z</time>
      </trkpt>
      <trkpt lat="48.55374" lon="-4.55683">
        <ele>47.37</ele>
        <time>2019-05-27T08:03:40Z</time>
      </trkpt>
      <trkpt lat="48.55369" lon="-4.55692">
        <ele>47.75</ele>
        <time>2019-05-27T08:04:07Z</time>
      </trkpt>
      <trkpt lat="48.55368" lon="-4.55695">
        <ele>47.63</ele>
        <time>2019-05-27T08:04:08Z</time>
      </trkpt>
      <trkpt lat="48.55358" lon="-4.55781">
        <ele>46.22</ele>
        <time>2019-05-27T08:04:25Z</time>
      </trkpt>
      <trkpt lat="48.5536" lon="-4.55795">
        <ele>46.05</ele>
        <time>2019-05-27T08:04:27Z</time>
      </trkpt>
      <trkpt lat="48.55362" lon="-4.55802">
        <ele>46</ele>
        <time>2019-05-27T08:04:28Z</time>
      </trkpt>
      <trkpt lat="48.55395" lon="-4.55873">
        <ele>46.41</ele>
        <time>2019-05-27T08:04:42Z</time>
      </trkpt>
      <trkpt lat="48.55433" lon="-4.55934">
        <ele>47.56</ele>
        <time>2019-05-27T08:05:01Z</time>
      </trkpt>
      <trkpt lat="48.55455" lon="-4.56007">
        <ele>47.19</ele>
        <time>2019-05-27T08:05:18Z</time>
      </trkpt>
      <trkpt lat="48.55465" lon="-4.56117">
        <ele>45.63</ele>
        <time>2019-05-27T08:05:36Z</time>
      </trkpt>
      <trkpt lat="48.55472" lon="-4.5623">
        <ele>44.32</ele>
        <time>2019-05-27T08:05:53Z</time>
      </trkpt>
      <trkpt lat="48.55493" lon="-4.56303">
        <ele>44.24</ele>
        <time>2019-05-27T08:06:05Z</time>
      </trkpt>
      <trkpt lat="48.55495" lon="-4.56308">
        <ele>44.26</ele>
        <time>2019-05-27T08:06:06Z</time>
      </trkpt>
      <trkpt lat="48.55525" lon="-4.564">
        <ele>45.48</ele>
        <time>2019-05-27T08:06:24Z</time>
      </trkpt>
      <trkpt lat="48.55535" lon="-4.56514">
        <ele>44.77</ele>
        <time>2019-05-27T08:06:45Z</time>
      </trkpt>
      <trkpt lat="48.55531" lon="-4.56632">
        <ele>42.78</ele>
        <time>2019-05-27T08:07:01Z</time>
      </trkpt>
      <trkpt lat="48.55541" lon="-4.56749">
        <ele>42.9</ele>
        <time>2019-05-27T08:07:20Z</time>
      </trkpt>
      <trkpt lat="48.55533" lon="-4.56886">
        <ele>40.54</ele>
        <time>2019-05-27T08:07:37Z</time>
      </trkpt>
      <trkpt lat="48.55521" lon="-4.56963">
        <ele>40.05</ele>
        <time>2019-05-27T08:07:47Z</time>
      </trkpt>
      <trkpt lat="48.55518" lon="-4.56969">
        <ele>39.92</ele>
        <time>2019-05-27T08:07:48Z</time>
      </trkpt>
      <trkpt lat="48.55472" lon="-4.57081">
        <ele>38.74</ele>
        <time>2019-05-27T08:08:06Z</time>
      </trkpt>
      <trkpt lat="48.55461" lon="-4.57197">
        <ele>34.85</ele>
        <time>2019-05-27T08:08:19Z</time>
      </trkpt>
      <trkpt lat="48.55448" lon="-4.57398">
        <ele>27.03</ele>
        <time>2019-05-27T08:08:34Z</time>
      </trkpt>
      <trkpt lat="48.55446" lon="-4.57438">
        <ele>25.77</ele>
        <time>2019-05-27T08:08:37Z</time>
      </trkpt>
      <trkpt lat="48.55447" lon="-4.57451">
        <ele>25.46</ele>
        <time>2019-05-27T08:08:38Z</time>
      </trkpt>
      <trkpt lat="48.55449" lon="-4.57464">
        <ele>24.99</ele>
        <time>2019-05-27T08:08:39Z</time>
      </trkpt>
      <trkpt lat="48.55451" lon="-4.57477">
        <ele>25.07</ele>
        <time>2019-05-27T08:08:40Z</time>
      </trkpt>
      <trkpt lat="48.55454" lon="-4.57489">
        <ele>23.9</ele>
        <time>2019-05-27T08:08:41Z</time>
      </trkpt>
      <trkpt lat="48.55457" lon="-4.57501">
        <ele>23.55</ele>
        <time>2019-05-27T08:08:42Z</time>
      </trkpt>
      <trkpt lat="48.55487" lon="-4.57607">
        <ele>19.18</ele>
        <time>2019-05-27T08:08:51Z</time>
      </trkpt>
      <trkpt lat="48.55517" lon="-4.57747">
        <ele>14.23</ele>
        <time>2019-05-27T08:09:03Z</time>
      </trkpt>
      <trkpt lat="48.5552" lon="-4.57771">
        <ele>12.95</ele>
        <time>2019-05-27T08:09:05Z</time>
      </trkpt>
      <trkpt lat="48.5552" lon="-4.57783">
        <ele>12.47</ele>
        <time>2019-05-27T08:09:06Z</time>
      </trkpt>
      <trkpt lat="48.5552" lon="-4.57796">
        <ele>12.13</ele>
        <time>2019-05-27T08:09:07Z</time>
      </trkpt>
      <trkpt lat="48.55518" lon="-4.57961">
        <ele>7.54</ele>
        <time>2019-05-27T08:09:20Z</time>
      </trkpt>
      <trkpt lat="48.55521" lon="-4.58073">
        <ele>9.08</ele>
        <time>2019-05-27T08:09:32Z</time>
      </trkpt>
      <trkpt lat="48.55522" lon="-4.58079">
        <ele>9.33</ele>
        <time>2019-05-27T08:09:33Z</time>
      </trkpt>
      <trkpt lat="48.55523" lon="-4.58083">
        <ele>9.37</ele>
        <time>2019-05-27T08:09:34Z</time>
      </trkpt>
      <trkpt lat="48.55523" lon="-4.58087">
        <ele>9.62</ele>
        <time>2019-05-27T08:09:35Z</time>
      </trkpt>
      <trkpt lat="48.55524" lon="-4.58091">
        <ele>9.88</ele>
        <time>2019-05-27T08:09:36Z</time>
      </trkpt>
      <trkpt lat="48.55525" lon="-4.58094">
        <ele>10.08</ele>
        <time>2019-05-27T08:09:37Z</time>
      </trkpt>
      <trkpt lat="48.55534" lon="-4.58146">
        <ele>12.96</ele>
        <time>2019-05-27T08:09:49Z</time>
      </trkpt>
      <trkpt lat="48.55535" lon="-4.58211">
        <ele>14.59</ele>
        <time>2019-05-27T08:10:03Z</time>
      </trkpt>
      <trkpt lat="48.55551" lon="-4.58306">
        <ele>13.27</ele>
        <time>2019-05-27T08:10:21Z</time>
      </trkpt>
      <trkpt lat="48.55583" lon="-4.58373">
        <ele>14.87</ele>
        <time>2019-05-27T08:10:36Z</time>
      </trkpt>
      <trkpt lat="48.55615" lon="-4.58436">
        <ele>18.97</ele>
        <time>2019-05-27T08:10:51Z</time>
      </trkpt>
      <trkpt lat="48.55624" lon="-4.58488">
        <ele>20.52</ele>
        <time>2019-05-27T08:11:02Z</time>
      </trkpt>
      <trkpt lat="48.5562" lon="-4.58548">
        <ele>20.48</ele>
        <time>2019-05-27T08:11:15Z</time>
      </trkpt>
      <trkpt lat="48.55604" lon="-4.58616">
        <ele>20.23</ele>
        <time>2019-05-27T08:11:31Z</time>
      </trkpt>
      <trkpt lat="48.55586" lon="-4.58683">
        <ele>20.94</ele>
        <time>2019-05-27T08:11:46Z</time>
      </trkpt>
      <trkpt lat="48.5556" lon="-4.58758">
        <ele>21.24</ele>
        <time>2019-05-27T08:12:02Z</time>
      </trkpt>
      <trkpt lat="48.55533" lon="-4.58848">
        <ele>18.55</ele>
        <time>2019-05-27T08:12:19Z</time>
      </trkpt>
      <trkpt lat="48.55497" lon="-4.58954">
        <ele>17.8</ele>
        <time>2019-05-27T08:12:36Z</time>
      </trkpt>
      <trkpt lat="48.55485" lon="-4.58974">
        <ele>17.73</ele>
        <time>2019-05-27T08:12:40Z</time>
      </trkpt>
      <trkpt lat="48.55467" lon="-4.59013">
        <ele>17.84</ele>
        <time>2019-05-27T08:12:47Z</time>
      </trkpt>
      <trkpt lat="48.55457" lon="-4.59039">
        <ele>17.84</ele>
        <time>2019-05-27T08:12:51Z</time>
      </trkpt>
      <trkpt lat="48.55442" lon="-4.59094">
        <ele>17.67</ele>
        <time>2019-05-27T08:12:59Z</time>
      </trkpt>
      <trkpt lat="48.5544" lon="-4.591">
        <ele>17.32</ele>
        <time>2019-05-27T08:13:00Z</time>
      </trkpt>
      <trkpt lat="48.55438" lon="-4.59107">
        <ele>17.08</ele>
        <time>2019-05-27T08:13:01Z</time>
      </trkpt>
      <trkpt lat="48.55427" lon="-4.59149">
        <ele>16.41</ele>
        <time>2019-05-27T08:13:07Z</time>
      </trkpt>
      <trkpt lat="48.55412" lon="-4.59187">
        <ele>15.39</ele>
        <time>2019-05-27T08:13:13Z</time>
      </trkpt>
      <trkpt lat="48.55411" lon="-4.59193">
        <ele>15.34</ele>
        <time>2019-05-27T08:13:14Z</time>
      </trkpt>
      <trkpt lat="48.55409" lon="-4.592">
        <ele>15.1</ele>
        <time>2019-05-27T08:13:15Z</time>
      </trkpt>
      <trkpt lat="48.55407" lon="-4.59206">
        <ele>15.03</ele>
        <time>2019-05-27T08:13:16Z</time>
      </trkpt>
      <trkpt lat="48.55404" lon="-4.59212">
        <ele>14.81</ele>
        <time>2019-05-27T08:13:17Z</time>
      </trkpt>
      <trkpt lat="48.554" lon="-4.59223">
        <ele>14.63</ele>
        <time>2019-05-27T08:13:19Z</time>
      </trkpt>
      <trkpt lat="48.55398" lon="-4.59229">
        <ele>14.33</ele>
        <time>2019-05-27T08:13:20Z</time>
      </trkpt>
      <trkpt lat="48.5539" lon="-4.59251">
        <ele>13.97</ele>
        <time>2019-05-27T08:13:24Z</time>
      </trkpt>
      <trkpt lat="48.55388" lon="-4.59256">
        <ele>13.97</ele>
        <time>2019-05-27T08:13:25Z</time>
      </trkpt>
      <trkpt lat="48.55387" lon="-4.59262">
        <ele>13.94</ele>
        <time>2019-05-27T08:13:26Z</time>
      </trkpt>
      <trkpt lat="48.55385" lon="-4.59268">
        <ele>13.78</ele>
        <time>2019-05-27T08:13:27Z</time>
      </trkpt>
      <trkpt lat="48.55384" lon="-4.59275">
        <ele>13.58</ele>
        <time>2019-05-27T08:13:28Z</time>
      </trkpt>
      <trkpt lat="48.55382" lon="-4.59282">
        <ele>13.25</ele>
        <time>2019-05-27T08:13:29Z</time>
      </trkpt>
      <trkpt lat="48.5536" lon="-4.59389">
        <ele>11.04</ele>
        <time>2019-05-27T08:13:43Z</time>
      </trkpt>
      <trkpt lat="48.55336" lon="-4.59455">
        <ele>9.87</ele>
        <time>2019-05-27T08:13:52Z</time>
      </trkpt>
      <trkpt lat="48.55334" lon="-4.59464">
        <ele>9.85</ele>
        <time>2019-05-27T08:13:53Z</time>
      </trkpt>
      <trkpt lat="48.55333" lon="-4.59472">
        <ele>9.61</ele>
        <time>2019-05-27T08:13:54Z</time>
      </trkpt>
      <trkpt lat="48.55332" lon="-4.59481">
        <ele>9.3</ele>
        <time>2019-05-27T08:13:55Z</time>
      </trkpt>
      <trkpt lat="48.55332" lon="-4.59489">
        <ele>9.23</ele>
        <time>2019-05-27T08:13:56Z</time>
      </trkpt>
      <trkpt lat="48.55332" lon="-4.59615">
        <ele>11.71</ele>
        <time>2019-05-27T08:14:14Z</time>
      </trkpt>
      <trkpt lat="48.55333" lon="-4.59653">
        <ele>13.58</ele>
        <time>2019-05-27T08:14:26Z</time>
      </trkpt>
      <trkpt lat="48.55329" lon="-4.59688">
        <ele>16.4</ele>
        <time>2019-05-27T08:14:41Z</time>
      </trkpt>
      <trkpt lat="48.55325" lon="-4.59726">
        <ele>18.78</ele>
        <time>2019-05-27T08:14:58Z</time>
      </trkpt>
      <trkpt lat="48.5532" lon="-4.59761">
        <ele>20.84</ele>
        <time>2019-05-27T08:15:14Z</time>
      </trkpt>
      <trkpt lat="48.55316" lon="-4.59804">
        <ele>22.8</ele>
        <time>2019-05-27T08:15:33Z</time>
      </trkpt>
      <trkpt lat="48.55311" lon="-4.59846">
        <ele>25.01</ele>
        <time>2019-05-27T08:15:52Z</time>
      </trkpt>
      <trkpt lat="48.55301" lon="-4.59886">
        <ele>27.92</ele>
        <time>2019-05-27T08:16:11Z</time>
      </trkpt>
      <trkpt lat="48.5529" lon="-4.59915">
        <ele>28.7</ele>
        <time>2019-05-27T08:16:27Z</time>
      </trkpt>
      <trkpt lat="48.5529" lon="-4.59918">
        <ele>28.78</ele>
        <time>2019-05-27T08:16:28Z</time>
      </trkpt>
      <trkpt lat="48.5529" lon="-4.5992">
        <ele>28.83</ele>
        <time>2019-05-27T08:16:29Z</time>
      </trkpt>
      <trkpt lat="48.55288" lon="-4.59929">
        <ele>29.03</ele>
        <time>2019-05-27T08:16:34Z</time>
      </trkpt>
      <trkpt lat="48.55283" lon="-4.59938">
        <ele>29.12</ele>
        <time>2019-05-27T08:16:44Z</time>
      </trkpt>
      <trkpt lat="48.55279" lon="-4.59944">
        <ele>31.3</ele>
        <time>2019-05-27T08:23:05Z</time>
      </trkpt>
      <trkpt lat="48.55277" lon="-4.59946">
        <ele>31.33</ele>
        <time>2019-05-27T08:23:06Z</time>
      </trkpt>
      <trkpt lat="48.55256" lon="-4.5999">
        <ele>32.21</ele>
        <time>2019-05-27T08:23:24Z</time>
      </trkpt>
      <trkpt lat="48.55237" lon="-4.60031">
        <ele>33.14</ele>
        <time>2019-05-27T08:23:39Z</time>
      </trkpt>
      <trkpt lat="48.55217" lon="-4.60081">
        <ele>33.34</ele>
        <time>2019-05-27T08:23:55Z</time>
      </trkpt>
      <trkpt lat="48.55208" lon="-4.60109">
        <ele>32.58</ele>
        <time>2019-05-27T08:24:01Z</time>
      </trkpt>
      <trkpt lat="48.55207" lon="-4.60116">
        <ele>32.38</ele>
        <time>2019-05-27T08:24:02Z</time>
      </trkpt>
      <trkpt lat="48.55204" lon="-4.6023">
        <ele>28.02</ele>
        <time>2019-05-27T08:24:15Z</time>
      </trkpt>
      <trkpt lat="48.55192" lon="-4.6037">
        <ele>27.01</ele>
        <time>2019-05-27T08:24:30Z</time>
      </trkpt>
      <trkpt lat="48.55192" lon="-4.60377">
        <ele>27.32</ele>
        <time>2019-05-27T08:24:31Z</time>
      </trkpt>
      <trkpt lat="48.55194" lon="-4.60383">
        <ele>27.55</ele>
        <time>2019-05-27T08:24:32Z</time>
      </trkpt>
      <trkpt lat="48.55196" lon="-4.60389">
        <ele>27.69</ele>
        <time>2019-05-27T08:24:33Z</time>
      </trkpt>
      <trkpt lat="48.55199" lon="-4.60393">
        <ele>27.59</ele>
        <time>2019-05-27T08:24:34Z</time>
      </trkpt>
      <trkpt lat="48.55202" lon="-4.60396">
        <ele>27.27</ele>
        <time>2019-05-27T08:24:35Z</time>
      </trkpt>
      <trkpt lat="48.55207" lon="-4.60399">
        <ele>27.06</ele>
        <time>2019-05-27T08:24:36Z</time>
      </trkpt>
      <trkpt lat="48.55211" lon="-4.60401">
        <ele>26.88</ele>
        <time>2019-05-27T08:24:37Z</time>
      </trkpt>
      <trkpt lat="48.5522" lon="-4.60405">
        <ele>26.47</ele>
        <time>2019-05-27T08:24:39Z</time>
      </trkpt>
      <trkpt lat="48.55224" lon="-4.60406">
        <ele>26.37</ele>
        <time>2019-05-27T08:24:40Z</time>
      </trkpt>
      <trkpt lat="48.55229" lon="-4.60407">
        <ele>26.24</ele>
        <time>2019-05-27T08:24:41Z</time>
      </trkpt>
      <trkpt lat="48.55247" lon="-4.60408">
        <ele>26.41</ele>
        <time>2019-05-27T08:24:45Z</time>
      </trkpt>
      <trkpt lat="48.55251" lon="-4.60409">
        <ele>26.53</ele>
        <time>2019-05-27T08:24:46Z</time>
      </trkpt>
      <trkpt lat="48.55255" lon="-4.6041">
        <ele>26.9</ele>
        <time>2019-05-27T08:24:47Z</time>
      </trkpt>
      <trkpt lat="48.5526" lon="-4.6041">
        <ele>26.98</ele>
        <time>2019-05-27T08:24:48Z</time>
      </trkpt>
      <trkpt lat="48.55265" lon="-4.6041">
        <ele>26.87</ele>
        <time>2019-05-27T08:24:49Z</time>
      </trkpt>
      <trkpt lat="48.55337" lon="-4.60407">
        <ele>26.26</ele>
        <time>2019-05-27T08:25:05Z</time>
      </trkpt>
      <trkpt lat="48.5543" lon="-4.60408">
        <ele>25.51</ele>
        <time>2019-05-27T08:25:23Z</time>
      </trkpt>
      <trkpt lat="48.55494" lon="-4.60416">
        <ele>25.5</ele>
        <time>2019-05-27T08:25:36Z</time>
      </trkpt>
      <trkpt lat="48.55549" lon="-4.60442">
        <ele>28.17</ele>
        <time>2019-05-27T08:25:52Z</time>
      </trkpt>
      <trkpt lat="48.55591" lon="-4.60462">
        <ele>28.75</ele>
        <time>2019-05-27T08:26:08Z</time>
      </trkpt>
      <trkpt lat="48.55622" lon="-4.60456">
        <ele>31.12</ele>
        <time>2019-05-27T08:26:25Z</time>
      </trkpt>
      <trkpt lat="48.55645" lon="-4.60443">
        <ele>33.79</ele>
        <time>2019-05-27T08:26:42Z</time>
      </trkpt>
      <trkpt lat="48.55649" lon="-4.6044">
        <ele>34.57</ele>
        <time>2019-05-27T08:26:49Z</time>
      </trkpt>
      <trkpt lat="48.55659" lon="-4.60433">
        <ele>36.72</ele>
        <time>2019-05-27T08:27:12Z</time>
      </trkpt>
      <trkpt lat="48.55689" lon="-4.604">
        <ele>38.34</ele>
        <time>2019-05-27T08:27:40Z</time>
      </trkpt>
      <trkpt lat="48.55706" lon="-4.60371">
        <ele>40.69</ele>
        <time>2019-05-27T08:27:57Z</time>
      </trkpt>
      <trkpt lat="48.55725" lon="-4.60335">
        <ele>43.32</ele>
        <time>2019-05-27T08:28:17Z</time>
      </trkpt>
      <trkpt lat="48.55742" lon="-4.60305">
        <ele>44.16</ele>
        <time>2019-05-27T08:28:33Z</time>
      </trkpt>
      <trkpt lat="48.55744" lon="-4.60302">
        <ele>44.2</ele>
        <time>2019-05-27T08:28:35Z</time>
      </trkpt>
      <trkpt lat="48.55746" lon="-4.603">
        <ele>44.16</ele>
        <time>2019-05-27T08:28:36Z</time>
      </trkpt>
      <trkpt lat="48.55746" lon="-4.60298">
        <ele>44.19</ele>
        <time>2019-05-27T08:28:37Z</time>
      </trkpt>
      <trkpt lat="48.55768" lon="-4.60273">
        <ele>43.6</ele>
        <time>2019-05-27T08:28:55Z</time>
      </trkpt>
      <trkpt lat="48.5578" lon="-4.60243">
        <ele>44.1</ele>
        <time>2019-05-27T08:29:07Z</time>
      </trkpt>
      <trkpt lat="48.5578" lon="-4.60212">
        <ele>44.46</ele>
        <time>2019-05-27T08:29:26Z</time>
      </trkpt>
      <trkpt lat="48.55782" lon="-4.60204">
        <ele>44.33</ele>
        <time>2019-05-27T08:29:37Z</time>
      </trkpt>
      <trkpt lat="48.55782" lon="-4.60201">
        <ele>44.43</ele>
        <time>2019-05-27T08:29:38Z</time>
      </trkpt>
      <trkpt lat="48.55782" lon="-4.60198">
        <ele>44.47</ele>
        <time>2019-05-27T08:29:39Z</time>
      </trkpt>
      <trkpt lat="48.55783" lon="-4.60194">
        <ele>44.53</ele>
        <time>2019-05-27T08:29:40Z</time>
      </trkpt>
      <trkpt lat="48.55783" lon="-4.60191">
        <ele>44.52</ele>
        <time>2019-05-27T08:29:41Z</time>
      </trkpt>
      <trkpt lat="48.55784" lon="-4.60187">
        <ele>44.49</ele>
        <time>2019-05-27T08:29:42Z</time>
      </trkpt>
      <trkpt lat="48.55795" lon="-4.601">
        <ele>43.65</ele>
        <time>2019-05-27T08:30:02Z</time>
      </trkpt>
      <trkpt lat="48.55799" lon="-4.60001">
        <ele>42.52</ele>
        <time>2019-05-27T08:30:19Z</time>
      </trkpt>
      <trkpt lat="48.55805" lon="-4.59919">
        <ele>40.44</ele>
        <time>2019-05-27T08:30:35Z</time>
      </trkpt>
      <trkpt lat="48.55813" lon="-4.59792">
        <ele>36.33</ele>
        <time>2019-05-27T08:30:53Z</time>
      </trkpt>
      <trkpt lat="48.55815" lon="-4.59728">
        <ele>34.92</ele>
        <time>2019-05-27T08:31:02Z</time>
      </trkpt>
      <trkpt lat="48.55817" lon="-4.59722">
        <ele>34.8</ele>
        <time>2019-05-27T08:31:03Z</time>
      </trkpt>
      <trkpt lat="48.55819" lon="-4.59717">
        <ele>34.68</ele>
        <time>2019-05-27T08:31:04Z</time>
      </trkpt>
      <trkpt lat="48.55823" lon="-4.59714">
        <ele>34.62</ele>
        <time>2019-05-27T08:31:05Z</time>
      </trkpt>
      <trkpt lat="48.55827" lon="-4.59713">
        <ele>34.69</ele>
        <time>2019-05-27T08:31:06Z</time>
      </trkpt>
      <trkpt lat="48.55831" lon="-4.59713">
        <ele>34.63</ele>
        <time>2019-05-27T08:31:07Z</time>
      </trkpt>
      <trkpt lat="48.55835" lon="-4.59714">
        <ele>34.7</ele>
        <time>2019-05-27T08:31:08Z</time>
      </trkpt>
      <trkpt lat="48.55839" lon="-4.59715">
        <ele>34.73</ele>
        <time>2019-05-27T08:31:09Z</time>
      </trkpt>
      <trkpt lat="48.55899" lon="-4.59745">
        <ele>33.93</ele>
        <time>2019-05-27T08:31:26Z</time>
      </trkpt>
      <trkpt lat="48.55981" lon="-4.59778">
        <ele>28.48</ele>
        <time>2019-05-27T08:31:45Z</time>
      </trkpt>
      <trkpt lat="48.56004" lon="-4.59784">
        <ele>26.78</ele>
        <time>2019-05-27T08:31:49Z</time>
      </trkpt>
      <trkpt lat="48.56009" lon="-4.59787">
        <ele>26.36</ele>
        <time>2019-05-27T08:31:50Z</time>
      </trkpt>
      <trkpt lat="48.56061" lon="-4.59837">
        <ele>21.86</ele>
        <time>2019-05-27T08:31:59Z</time>
      </trkpt>
      <trkpt lat="48.56068" lon="-4.59842">
        <ele>21.59</ele>
        <time>2019-05-27T08:32:00Z</time>
      </trkpt>
      <trkpt lat="48.56099" lon="-4.59854">
        <ele>21.83</ele>
        <time>2019-05-27T08:32:05Z</time>
      </trkpt>
      <trkpt lat="48.56146" lon="-4.59879">
        <ele>24.54</ele>
        <time>2019-05-27T08:32:18Z</time>
      </trkpt>
      <trkpt lat="48.56177" lon="-4.59907">
        <ele>26.6</ele>
        <time>2019-05-27T08:32:36Z</time>
      </trkpt>
      <trkpt lat="48.56202" lon="-4.59933">
        <ele>26.41</ele>
        <time>2019-05-27T08:32:53Z</time>
      </trkpt>
      <trkpt lat="48.56215" lon="-4.59941">
        <ele>26.18</ele>
        <time>2019-05-27T08:33:04Z</time>
      </trkpt>
      <trkpt lat="48.56221" lon="-4.59885">
        <ele>26.5</ele>
        <time>2019-05-27T08:33:21Z</time>
      </trkpt>
      <trkpt lat="48.56239" lon="-4.59819">
        <ele>26.02</ele>
        <time>2019-05-27T08:33:36Z</time>
      </trkpt>
      <trkpt lat="48.56282" lon="-4.59782">
        <ele>23.06</ele>
        <time>2019-05-27T08:33:49Z</time>
      </trkpt>
      <trkpt lat="48.56327" lon="-4.59727">
        <ele>16.79</ele>
        <time>2019-05-27T08:34:04Z</time>
      </trkpt>
      <trkpt lat="48.56328" lon="-4.59725">
        <ele>16.65</ele>
        <time>2019-05-27T08:34:05Z</time>
      </trkpt>
      <trkpt lat="48.56327" lon="-4.59712">
        <ele>16.35</ele>
        <time>2019-05-27T08:34:09Z</time>
      </trkpt>
      <trkpt lat="48.56326" lon="-4.5971">
        <ele>16.33</ele>
        <time>2019-05-27T08:34:10Z</time>
      </trkpt>
      <trkpt lat="48.56324" lon="-4.59707">
        <ele>16.43</ele>
        <time>2019-05-27T08:34:11Z</time>
      </trkpt>
      <trkpt lat="48.56322" lon="-4.59705">
        <ele>16.28</ele>
        <time>2019-05-27T08:34:12Z</time>
      </trkpt>
      <trkpt lat="48.5632" lon="-4.59702">
        <ele>16.24</ele>
        <time>2019-05-27T08:34:13Z</time>
      </trkpt>
      <trkpt lat="48.56318" lon="-4.597">
        <ele>16.23</ele>
        <time>2019-05-27T08:34:14Z</time>
      </trkpt>
      <trkpt lat="48.56316" lon="-4.59697">
        <ele>16.28</ele>
        <time>2019-05-27T08:34:15Z</time>
      </trkpt>
      <trkpt lat="48.56288" lon="-4.59648">
        <ele>16.83</ele>
        <time>2019-05-27T08:34:28Z</time>
      </trkpt>
      <trkpt lat="48.56287" lon="-4.59642">
        <ele>16.68</ele>
        <time>2019-05-27T08:34:29Z</time>
      </trkpt>
      <trkpt lat="48.56287" lon="-4.59636">
        <ele>15.94</ele>
        <time>2019-05-27T08:34:30Z</time>
      </trkpt>
      <trkpt lat="48.56288" lon="-4.5963">
        <ele>15.54</ele>
        <time>2019-05-27T08:34:31Z</time>
      </trkpt>
      <trkpt lat="48.5629" lon="-4.59625">
        <ele>15.27</ele>
        <time>2019-05-27T08:34:32Z</time>
      </trkpt>
      <trkpt lat="48.56292" lon="-4.5962">
        <ele>15.28</ele>
        <time>2019-05-27T08:34:33Z</time>
      </trkpt>
      <trkpt lat="48.56295" lon="-4.59616">
        <ele>15.22</ele>
        <time>2019-05-27T08:34:34Z</time>
      </trkpt>
      <trkpt lat="48.56298" lon="-4.59613">
        <ele>15.34</ele>
        <time>2019-05-27T08:34:35Z</time>
      </trkpt>
      <trkpt lat="48.56301" lon="-4.5961">
        <ele>15.65</ele>
        <time>2019-05-27T08:34:36Z</time>
      </trkpt>
      <trkpt lat="48.56337" lon="-4.59589">
        <ele>17.21</ele>
        <time>2019-05-27T08:34:52Z</time>
      </trkpt>
      <trkpt lat="48.56386" lon="-4.59585">
        <ele>16.45</ele>
        <time>2019-05-27T08:35:09Z</time>
      </trkpt>
      <trkpt lat="48.56451" lon="-4.59581">
        <ele>15.25</ele>
        <time>2019-05-27T08:35:26Z</time>
      </trkpt>
      <trkpt lat="48.56518" lon="-4.59601">
        <ele>14.77</ele>
        <time>2019-05-27T08:35:44Z</time>
      </trkpt>
      <trkpt lat="48.56558" lon="-4.59631">
        <ele>15.97</ele>
        <time>2019-05-27T08:36:00Z</time>
      </trkpt>
      <trkpt lat="48.5659" lon="-4.59656">
        <ele>17.47</ele>
        <time>2019-05-27T08:36:18Z</time>
      </trkpt>
      <trkpt lat="48.56624" lon="-4.59682">
        <ele>18.28</ele>
        <time>2019-05-27T08:36:37Z</time>
      </trkpt>
      <trkpt lat="48.56649" lon="-4.597">
        <ele>18.38</ele>
        <time>2019-05-27T08:36:50Z</time>
      </trkpt>
      <trkpt lat="48.56686" lon="-4.59722">
        <ele>18.18</ele>
        <time>2019-05-27T08:37:06Z</time>
      </trkpt>
      <trkpt lat="48.56725" lon="-4.59735">
        <ele>19.52</ele>
        <time>2019-05-27T08:37:23Z</time>
      </trkpt>
      <trkpt lat="48.56763" lon="-4.59741">
        <ele>20.59</ele>
        <time>2019-05-27T08:37:41Z</time>
      </trkpt>
      <trkpt lat="48.56807" lon="-4.59748">
        <ele>21.17</ele>
        <time>2019-05-27T08:38:00Z</time>
      </trkpt>
      <trkpt lat="48.56848" lon="-4.59755">
        <ele>20.41</ele>
        <time>2019-05-27T08:38:14Z</time>
      </trkpt>
      <trkpt lat="48.56899" lon="-4.59762">
        <ele>20.63</ele>
        <time>2019-05-27T08:38:27Z</time>
      </trkpt>
      <trkpt lat="48.56957" lon="-4.59771">
        <ele>19.49</ele>
        <time>2019-05-27T08:38:47Z</time>
      </trkpt>
      <trkpt lat="48.56995" lon="-4.59784">
        <ele>14.63</ele>
        <time>2019-05-27T08:38:58Z</time>
      </trkpt>
      <trkpt lat="48.56996" lon="-4.59787">
        <ele>14.8</ele>
        <time>2019-05-27T08:38:59Z</time>
      </trkpt>
      <trkpt lat="48.56997" lon="-4.5979">
        <ele>15.14</ele>
        <time>2019-05-27T08:39:00Z</time>
      </trkpt>
      <trkpt lat="48.56996" lon="-4.59823">
        <ele>18.32</ele>
        <time>2019-05-27T08:39:14Z</time>
      </trkpt>
      <trkpt lat="48.56993" lon="-4.59859">
        <ele>21.24</ele>
        <time>2019-05-27T08:39:30Z</time>
      </trkpt>
      <trkpt lat="48.5699" lon="-4.59902">
        <ele>25.09</ele>
        <time>2019-05-27T08:39:51Z</time>
      </trkpt>
      <trkpt lat="48.56986" lon="-4.59942">
        <ele>27.04</ele>
        <time>2019-05-27T08:40:12Z</time>
      </trkpt>
      <trkpt lat="48.56979" lon="-4.59985">
        <ele>28.76</ele>
        <time>2019-05-27T08:40:34Z</time>
      </trkpt>
      <trkpt lat="48.56979" lon="-4.60023">
        <ele>30.16</ele>
        <time>2019-05-27T08:40:52Z</time>
      </trkpt>
      <trkpt lat="48.56975" lon="-4.60065">
        <ele>32.07</ele>
        <time>2019-05-27T08:41:10Z</time>
      </trkpt>
      <trkpt lat="48.56972" lon="-4.60101">
        <ele>32.77</ele>
        <time>2019-05-27T08:41:31Z</time>
      </trkpt>
      <trkpt lat="48.56972" lon="-4.60101">
        <ele>32.75</ele>
        <time>2019-05-27T08:41:32Z</time>
      </trkpt>
      <trkpt lat="48.56973" lon="-4.60109">
        <ele>33.36</ele>
        <time>2019-05-27T08:41:56Z</time>
      </trkpt>
      <trkpt lat="48.56973" lon="-4.60111">
        <ele>33.45</ele>
        <time>2019-05-27T08:41:57Z</time>
      </trkpt>
      <trkpt lat="48.56973" lon="-4.60113">
        <ele>33.6</ele>
        <time>2019-05-27T08:41:58Z</time>
      </trkpt>
      <trkpt lat="48.56972" lon="-4.60115">
        <ele>33.77</ele>
        <time>2019-05-27T08:41:59Z</time>
      </trkpt>
      <trkpt lat="48.56972" lon="-4.60118">
        <ele>33.73</ele>
        <time>2019-05-27T08:42:00Z</time>
      </trkpt>
      <trkpt lat="48.56972" lon="-4.6012">
        <ele>33.28</ele>
        <time>2019-05-27T08:42:01Z</time>
      </trkpt>
      <trkpt lat="48.56972" lon="-4.60123">
        <ele>33.29</ele>
        <time>2019-05-27T08:42:02Z</time>
      </trkpt>
      <trkpt lat="48.56972" lon="-4.60126">
        <ele>33.24</ele>
        <time>2019-05-27T08:42:03Z</time>
      </trkpt>
      <trkpt lat="48.56972" lon="-4.60128">
        <ele>33.31</ele>
        <time>2019-05-27T08:42:04Z</time>
      </trkpt>
      <trkpt lat="48.5698" lon="-4.60181">
        <ele>33.68</ele>
        <time>2019-05-27T08:42:22Z</time>
      </trkpt>
      <trkpt lat="48.57005" lon="-4.60231">
        <ele>34.93</ele>
        <time>2019-05-27T08:42:42Z</time>
      </trkpt>
      <trkpt lat="48.57036" lon="-4.60286">
        <ele>35.82</ele>
        <time>2019-05-27T08:43:05Z</time>
      </trkpt>
      <trkpt lat="48.57048" lon="-4.60339">
        <ele>35.62</ele>
        <time>2019-05-27T08:43:22Z</time>
      </trkpt>
      <trkpt lat="48.57054" lon="-4.60391">
        <ele>34.56</ele>
        <time>2019-05-27T08:43:35Z</time>
      </trkpt>
      <trkpt lat="48.57065" lon="-4.60456">
        <ele>34.43</ele>
        <time>2019-05-27T08:43:49Z</time>
      </trkpt>
      <trkpt lat="48.57076" lon="-4.60528">
        <ele>34.38</ele>
        <time>2019-05-27T08:44:07Z</time>
      </trkpt>
      <trkpt lat="48.57081" lon="-4.6056">
        <ele>32.86</ele>
        <time>2019-05-27T08:44:17Z</time>
      </trkpt>
      <trkpt lat="48.57082" lon="-4.60563">
        <ele>32.99</ele>
        <time>2019-05-27T08:44:23Z</time>
      </trkpt>
      <trkpt lat="48.57088" lon="-4.60566">
        <ele>32.42</ele>
        <time>2019-05-27T08:45:29Z</time>
      </trkpt>
      <trkpt lat="48.5709" lon="-4.60567">
        <ele>32.34</ele>
        <time>2019-05-27T08:45:30Z</time>
      </trkpt>
      <trkpt lat="48.57093" lon="-4.60567">
        <ele>32.1</ele>
        <time>2019-05-27T08:45:31Z</time>
      </trkpt>
      <trkpt lat="48.5712" lon="-4.60575">
        <ele>30.47</ele>
        <time>2019-05-27T08:45:39Z</time>
      </trkpt>
      <trkpt lat="48.57165" lon="-4.6058">
        <ele>27.4</ele>
        <time>2019-05-27T08:45:53Z</time>
      </trkpt>
      <trkpt lat="48.57189" lon="-4.60608">
        <ele>24.66</ele>
        <time>2019-05-27T08:46:05Z</time>
      </trkpt>
      <trkpt lat="48.5719" lon="-4.60612">
        <ele>24.09</ele>
        <time>2019-05-27T08:46:11Z</time>
      </trkpt>
      <trkpt lat="48.57193" lon="-4.60618">
        <ele>24.45</ele>
        <time>2019-05-27T08:46:26Z</time>
      </trkpt>
      <trkpt lat="48.57194" lon="-4.60622">
        <ele>24.16</ele>
        <time>2019-05-27T08:46:27Z</time>
      </trkpt>
      <trkpt lat="48.57195" lon="-4.60626">
        <ele>23.84</ele>
        <time>2019-05-27T08:46:28Z</time>
      </trkpt>
      <trkpt lat="48.57211" lon="-4.60708">
        <ele>20.71</ele>
        <time>2019-05-27T08:46:41Z</time>
      </trkpt>
      <trkpt lat="48.57219" lon="-4.60824">
        <ele>18.99</ele>
        <time>2019-05-27T08:47:00Z</time>
      </trkpt>
      <trkpt lat="48.57225" lon="-4.60905">
        <ele>19.65</ele>
        <time>2019-05-27T08:47:15Z</time>
      </trkpt>
      <trkpt lat="48.57234" lon="-4.60985">
        <ele>21.2</ele>
        <time>2019-05-27T08:47:32Z</time>
      </trkpt>
      <trkpt lat="48.57238" lon="-4.61031">
        <ele>24.5</ele>
        <time>2019-05-27T08:47:46Z</time>
      </trkpt>
      <trkpt lat="48.57244" lon="-4.61074">
        <ele>26.36</ele>
        <time>2019-05-27T08:47:59Z</time>
      </trkpt>
      <trkpt lat="48.57247" lon="-4.61128">
        <ele>25.92</ele>
        <time>2019-05-27T08:48:14Z</time>
      </trkpt>
      <trkpt lat="48.57246" lon="-4.6118">
        <ele>28.25</ele>
        <time>2019-05-27T08:48:31Z</time>
      </trkpt>
      <trkpt lat="48.57245" lon="-4.61216">
        <ele>26.49</ele>
        <time>2019-05-27T08:48:45Z</time>
      </trkpt>
      <trkpt lat="48.57245" lon="-4.61215">
        <ele>26.43</ele>
        <time>2019-05-27T08:48:49Z</time>
      </trkpt>
      <trkpt lat="48.57244" lon="-4.61221">
        <ele>24.82</ele>
        <time>2019-05-27T08:50:34Z</time>
      </trkpt>
      <trkpt lat="48.57244" lon="-4.61223">
        <ele>24.98</ele>
        <time>2019-05-27T08:50:35Z</time>
      </trkpt>
      <trkpt lat="48.57245" lon="-4.61239">
        <ele>25.79</ele>
        <time>2019-05-27T08:50:41Z</time>
      </trkpt>
      <trkpt lat="48.57245" lon="-4.61242">
        <ele>25.94</ele>
        <time>2019-05-27T08:50:42Z</time>
      </trkpt>
      <trkpt lat="48.57246" lon="-4.61244">
        <ele>26.01</ele>
        <time>2019-05-27T08:50:43Z</time>
      </trkpt>
      <trkpt lat="48.57256" lon="-4.61285">
        <ele>26.82</ele>
        <time>2019-05-27T08:50:59Z</time>
      </trkpt>
      <trkpt lat="48.57263" lon="-4.61337">
        <ele>28.93</ele>
        <time>2019-05-27T08:51:17Z</time>
      </trkpt>
      <trkpt lat="48.57256" lon="-4.61369">
        <ele>33.17</ele>
        <time>2019-05-27T08:51:32Z</time>
      </trkpt>
      <trkpt lat="48.57242" lon="-4.61396">
        <ele>35.54</ele>
        <time>2019-05-27T08:51:49Z</time>
      </trkpt>
      <trkpt lat="48.5724" lon="-4.61401">
        <ele>36.57</ele>
        <time>2019-05-27T08:51:56Z</time>
      </trkpt>
      <trkpt lat="48.57236" lon="-4.61407">
        <ele>38.18</ele>
        <time>2019-05-27T08:52:20Z</time>
      </trkpt>
      <trkpt lat="48.57235" lon="-4.61409">
        <ele>38.19</ele>
        <time>2019-05-27T08:52:21Z</time>
      </trkpt>
      <trkpt lat="48.57231" lon="-4.61426">
        <ele>37.35</ele>
        <time>2019-05-27T08:52:29Z</time>
      </trkpt>
      <trkpt lat="48.57223" lon="-4.61454">
        <ele>37.74</ele>
        <time>2019-05-27T08:52:43Z</time>
      </trkpt>
      <trkpt lat="48.57196" lon="-4.61505">
        <ele>33.25</ele>
        <time>2019-05-27T08:52:52Z</time>
      </trkpt>
      <trkpt lat="48.57192" lon="-4.61513">
        <ele>32.9</ele>
        <time>2019-05-27T08:52:53Z</time>
      </trkpt>
      <trkpt lat="48.57188" lon="-4.61521">
        <ele>32.49</ele>
        <time>2019-05-27T08:52:54Z</time>
      </trkpt>
      <trkpt lat="48.57187" lon="-4.61531">
        <ele>32.24</ele>
        <time>2019-05-27T08:52:55Z</time>
      </trkpt>
      <trkpt lat="48.57186" lon="-4.61541">
        <ele>32.52</ele>
        <time>2019-05-27T08:52:56Z</time>
      </trkpt>
      <trkpt lat="48.57186" lon="-4.61549">
        <ele>32.79</ele>
        <time>2019-05-27T08:52:57Z</time>
      </trkpt>
      <trkpt lat="48.57186" lon="-4.61556">
        <ele>33.02</ele>
        <time>2019-05-27T08:52:58Z</time>
      </trkpt>
      <trkpt lat="48.57187" lon="-4.61589">
        <ele>35.27</ele>
        <time>2019-05-27T08:53:08Z</time>
      </trkpt>
      <trkpt lat="48.57188" lon="-4.61592">
        <ele>35.37</ele>
        <time>2019-05-27T08:53:14Z</time>
      </trkpt>
      <trkpt lat="48.57193" lon="-4.61598">
        <ele>35.84</ele>
        <time>2019-05-27T08:53:35Z</time>
      </trkpt>
      <trkpt lat="48.57194" lon="-4.61599">
        <ele>35.91</ele>
        <time>2019-05-27T08:53:36Z</time>
      </trkpt>
      <trkpt lat="48.57196" lon="-4.61601">
        <ele>35.85</ele>
        <time>2019-05-27T08:53:37Z</time>
      </trkpt>
      <trkpt lat="48.57198" lon="-4.61603">
        <ele>36</ele>
        <time>2019-05-27T08:53:38Z</time>
      </trkpt>
      <trkpt lat="48.57235" lon="-4.61626">
        <ele>37.5</ele>
        <time>2019-05-27T08:53:56Z</time>
      </trkpt>
      <trkpt lat="48.57292" lon="-4.61653">
        <ele>36.8</ele>
        <time>2019-05-27T08:54:14Z</time>
      </trkpt>
      <trkpt lat="48.57321" lon="-4.61698">
        <ele>36.75</ele>
        <time>2019-05-27T08:54:28Z</time>
      </trkpt>
      <trkpt lat="48.57319" lon="-4.61791">
        <ele>36</ele>
        <time>2019-05-27T08:54:46Z</time>
      </trkpt>
      <trkpt lat="48.57323" lon="-4.6187">
        <ele>35.25</ele>
        <time>2019-05-27T08:55:03Z</time>
      </trkpt>
      <trkpt lat="48.57334" lon="-4.61963">
        <ele>34.45</ele>
        <time>2019-05-27T08:55:22Z</time>
      </trkpt>
      <trkpt lat="48.57342" lon="-4.62057">
        <ele>31.84</ele>
        <time>2019-05-27T08:55:39Z</time>
      </trkpt>
      <trkpt lat="48.57358" lon="-4.62135">
        <ele>27.93</ele>
        <time>2019-05-27T08:55:54Z</time>
      </trkpt>
      <trkpt lat="48.57374" lon="-4.62172">
        <ele>25.27</ele>
        <time>2019-05-27T08:56:07Z</time>
      </trkpt>
      <trkpt lat="48.57396" lon="-4.62225">
        <ele>21.59</ele>
        <time>2019-05-27T08:56:21Z</time>
      </trkpt>
      <trkpt lat="48.57431" lon="-4.62319">
        <ele>14.9</ele>
        <time>2019-05-27T08:56:41Z</time>
      </trkpt>
      <trkpt lat="48.57434" lon="-4.62331">
        <ele>14.21</ele>
        <time>2019-05-27T08:56:43Z</time>
      </trkpt>
      <trkpt lat="48.57436" lon="-4.62338">
        <ele>13.79</ele>
        <time>2019-05-27T08:56:44Z</time>
      </trkpt>
      <trkpt lat="48.57438" lon="-4.62354">
        <ele>12.84</ele>
        <time>2019-05-27T08:56:46Z</time>
      </trkpt>
      <trkpt lat="48.57439" lon="-4.62362">
        <ele>12.18</ele>
        <time>2019-05-27T08:56:47Z</time>
      </trkpt>
      <trkpt lat="48.57439" lon="-4.62371">
        <ele>11.59</ele>
        <time>2019-05-27T08:56:48Z</time>
      </trkpt>
      <trkpt lat="48.57426" lon="-4.62503">
        <ele>8.61</ele>
        <time>2019-05-27T08:57:01Z</time>
      </trkpt>
      <trkpt lat="48.57407" lon="-4.62605">
        <ele>10.35</ele>
        <time>2019-05-27T08:57:14Z</time>
      </trkpt>
      <trkpt lat="48.57382" lon="-4.62675">
        <ele>12.78</ele>
        <time>2019-05-27T08:57:31Z</time>
      </trkpt>
      <trkpt lat="48.57361" lon="-4.62717">
        <ele>15.47</ele>
        <time>2019-05-27T08:57:49Z</time>
      </trkpt>
      <trkpt lat="48.57336" lon="-4.62749">
        <ele>17.33</ele>
        <time>2019-05-27T08:58:08Z</time>
      </trkpt>
      <trkpt lat="48.57317" lon="-4.62766">
        <ele>17.71</ele>
        <time>2019-05-27T08:58:21Z</time>
      </trkpt>
      <trkpt lat="48.57291" lon="-4.6273">
        <ele>18.91</ele>
        <time>2019-05-27T08:58:38Z</time>
      </trkpt>
      <trkpt lat="48.57261" lon="-4.62711">
        <ele>20.28</ele>
        <time>2019-05-27T08:58:56Z</time>
      </trkpt>
      <trkpt lat="48.57236" lon="-4.62752">
        <ele>20.5</ele>
        <time>2019-05-27T08:59:14Z</time>
      </trkpt>
      <trkpt lat="48.57231" lon="-4.62814">
        <ele>19.62</ele>
        <time>2019-05-27T08:59:29Z</time>
      </trkpt>
      <trkpt lat="48.57226" lon="-4.629">
        <ele>18.11</ele>
        <time>2019-05-27T08:59:46Z</time>
      </trkpt>
      <trkpt lat="48.5722" lon="-4.63006">
        <ele>16.59</ele>
        <time>2019-05-27T09:00:05Z</time>
      </trkpt>
      <trkpt lat="48.57213" lon="-4.63113">
        <ele>15.41</ele>
        <time>2019-05-27T09:00:24Z</time>
      </trkpt>
      <trkpt lat="48.57207" lon="-4.63216">
        <ele>14.17</ele>
        <time>2019-05-27T09:00:42Z</time>
      </trkpt>
      <trkpt lat="48.57202" lon="-4.63291">
        <ele>13.21</ele>
        <time>2019-05-27T09:00:54Z</time>
      </trkpt>
      <trkpt lat="48.57196" lon="-4.63411">
        <ele>11.84</ele>
        <time>2019-05-27T09:01:13Z</time>
      </trkpt>
      <trkpt lat="48.57188" lon="-4.63534">
        <ele>10.91</ele>
        <time>2019-05-27T09:01:32Z</time>
      </trkpt>
      <trkpt lat="48.5718" lon="-4.63651">
        <ele>11.84</ele>
        <time>2019-05-27T09:01:53Z</time>
      </trkpt>
      <trkpt lat="48.57169" lon="-4.63739">
        <ele>13.01</ele>
        <time>2019-05-27T09:02:13Z</time>
      </trkpt>
      <trkpt lat="48.57155" lon="-4.63817">
        <ele>14.05</ele>
        <time>2019-05-27T09:02:33Z</time>
      </trkpt>
      <trkpt lat="48.57134" lon="-4.63907">
        <ele>14.63</ele>
        <time>2019-05-27T09:02:55Z</time>
      </trkpt>
      <trkpt lat="48.57107" lon="-4.63997">
        <ele>14.95</ele>
        <time>2019-05-27T09:03:17Z</time>
      </trkpt>
      <trkpt lat="48.57067" lon="-4.64097">
        <ele>16.3</ele>
        <time>2019-05-27T09:03:43Z</time>
      </trkpt>
      <trkpt lat="48.57041" lon="-4.6415">
        <ele>17.68</ele>
        <time>2019-05-27T09:04:01Z</time>
      </trkpt>
      <trkpt lat="48.57014" lon="-4.642">
        <ele>19.01</ele>
        <time>2019-05-27T09:04:20Z</time>
      </trkpt>
      <trkpt lat="48.56977" lon="-4.64271">
        <ele>19.67</ele>
        <time>2019-05-27T09:04:44Z</time>
      </trkpt>
      <trkpt lat="48.56949" lon="-4.64324">
        <ele>19.95</ele>
        <time>2019-05-27T09:05:00Z</time>
      </trkpt>
      <trkpt lat="48.56912" lon="-4.64395">
        <ele>19.35</ele>
        <time>2019-05-27T09:05:19Z</time>
      </trkpt>
      <trkpt lat="48.56881" lon="-4.64455">
        <ele>18.35</ele>
        <time>2019-05-27T09:05:36Z</time>
      </trkpt>
      <trkpt lat="48.56843" lon="-4.64528">
        <ele>16.51</ele>
        <time>2019-05-27T09:05:53Z</time>
      </trkpt>
      <trkpt lat="48.5682" lon="-4.64573">
        <ele>15.19</ele>
        <time>2019-05-27T09:06:02Z</time>
      </trkpt>
      <trkpt lat="48.56773" lon="-4.64693">
        <ele>12.12</ele>
        <time>2019-05-27T09:06:22Z</time>
      </trkpt>
      <trkpt lat="48.56738" lon="-4.64835">
        <ele>8.43</ele>
        <time>2019-05-27T09:06:42Z</time>
      </trkpt>
      <trkpt lat="48.56697" lon="-4.64938">
        <ele>5.91</ele>
        <time>2019-05-27T09:06:58Z</time>
      </trkpt>
      <trkpt lat="48.56646" lon="-4.64995">
        <ele>4.35</ele>
        <time>2019-05-27T09:07:11Z</time>
      </trkpt>
      <trkpt lat="48.56621" lon="-4.65019">
        <ele>3.94</ele>
        <time>2019-05-27T09:07:22Z</time>
      </trkpt>
      <trkpt lat="48.56621" lon="-4.65018">
        <ele>4.01</ele>
        <time>2019-05-27T09:07:26Z</time>
      </trkpt>
      <trkpt lat="48.56621" lon="-4.65032">
        <ele>3.95</ele>
        <time>2019-05-27T09:07:35Z</time>
      </trkpt>
      <trkpt lat="48.56621" lon="-4.65036">
        <ele>3.82</ele>
        <time>2019-05-27T09:07:36Z</time>
      </trkpt>
      <trkpt lat="48.56621" lon="-4.6504">
        <ele>3.67</ele>
        <time>2019-05-27T09:07:37Z</time>
      </trkpt>
      <trkpt lat="48.56611" lon="-4.65105">
        <ele>3.04</ele>
        <time>2019-05-27T09:07:51Z</time>
      </trkpt>
      <trkpt lat="48.56592" lon="-4.6515">
        <ele>5.99</ele>
        <time>2019-05-27T09:08:05Z</time>
      </trkpt>
      <trkpt lat="48.56576" lon="-4.65232">
        <ele>6.42</ele>
        <time>2019-05-27T09:08:25Z</time>
      </trkpt>
      <trkpt lat="48.56579" lon="-4.65285">
        <ele>6.34</ele>
        <time>2019-05-27T09:08:38Z</time>
      </trkpt>
      <trkpt lat="48.56581" lon="-4.65288">
        <ele>6.35</ele>
        <time>2019-05-27T09:08:39Z</time>
      </trkpt>
      <trkpt lat="48.56584" lon="-4.6529">
        <ele>6.3</ele>
        <time>2019-05-27T09:08:40Z</time>
      </trkpt>
      <trkpt lat="48.56587" lon="-4.65291">
        <ele>6.25</ele>
        <time>2019-05-27T09:08:41Z</time>
      </trkpt>
      <trkpt lat="48.56515" lon="-4.6532">
        <ele>10.9</ele>
      </trkpt>
      <trkpt lat="48.56466" lon="-4.65331">
        <ele>12.3</ele>
      </trkpt>
      <trkpt lat="48.56389" lon="-4.65299">
        <ele>16.4</ele>
      </trkpt>
      <trkpt lat="48.56291" lon="-4.65299">
        <ele>21.9</ele>
      </trkpt>
      <trkpt lat="48.56207" lon="-4.65315">
        <ele>24.4</ele>
      </trkpt>
      <trkpt lat="48.56172" lon="-4.65215">
        <ele>27.2</ele>
      </trkpt>
      <trkpt lat="48.56151" lon="-4.65246">
        <ele>27.4</ele>
      </trkpt>
      <trkpt lat="48.56085" lon="-4.65267">
        <ele>28.3</ele>
      </trkpt>
      <trkpt lat="48.56082" lon="-4.65352">
        <ele>25.8</ele>
      </trkpt>
      <trkpt lat="48.56026" lon="-4.65431">
        <ele>27.8</ele>
      </trkpt>
      <trkpt lat="48.56068" lon="-4.65505">
        <ele>26.5</ele>
      </trkpt>
      <trkpt lat="48.56123" lon="-4.65537">
        <ele>23.6</ele>
      </trkpt>
      <trkpt lat="48.5612" lon="-4.656">
        <ele>23.6</ele>
      </trkpt>
      <trkpt lat="48.56071" lon="-4.65806">
        <ele>25</ele>
      </trkpt>
      <trkpt lat="48.56082" lon="-4.66065">
        <ele>20</ele>
      </trkpt>
      <trkpt lat="48.56064" lon="-4.66234">
        <ele>19.9</ele>
      </trkpt>
      <trkpt lat="48.55858" lon="-4.66171">
        <ele>25.9</ele>
      </trkpt>
      <trkpt lat="48.55553" lon="-4.66092">
        <ele>30.7</ele>
      </trkpt>
      <trkpt lat="48.5554" lon="-4.6597">
        <ele>35.8</ele>
      </trkpt>
      <trkpt lat="48.55557" lon="-4.65822">
        <ele>38.5</ele>
      </trkpt>
      <trkpt lat="48.55574" lon="-4.65743">
        <ele>39.2</ele>
      </trkpt>
      <trkpt lat="48.55533" lon="-4.65621">
        <ele>40</ele>
      </trkpt>
      <trkpt lat="48.55239" lon="-4.65849">
        <ele>36.4</ele>
      </trkpt>
      <trkpt lat="48.55022" lon="-4.65928">
        <ele>32.5</ele>
      </trkpt>
      <trkpt lat="48.54676" lon="-4.65901">
        <ele>40</ele>
      </trkpt>
      <trkpt lat="48.54592" lon="-4.65965">
        <ele>46.6</ele>
      </trkpt>
      <trkpt lat="48.54466" lon="-4.6606">
        <ele>51.2</ele>
      </trkpt>
      <trkpt lat="48.54417" lon="-4.66118">
        <ele>52</ele>
      </trkpt>
      <trkpt lat="48.54371" lon="-4.66113">
        <ele>52.2</ele>
      </trkpt>
      <trkpt lat="48.54263" lon="-4.66134">
        <ele>53.5</ele>
      </trkpt>
      <trkpt lat="48.54196" lon="-4.6615">
        <ele>53.3</ele>
      </trkpt>
      <trkpt lat="48.54172" lon="-4.66012">
        <ele>53</ele>
      </trkpt>
      <trkpt lat="48.54133" lon="-4.65986">
        <ele>54</ele>
      </trkpt>
      <trkpt lat="48.54154" lon="-4.65901">
        <ele>54.8</ele>
      </trkpt>
      <trkpt lat="48.5414" lon="-4.65785">
        <ele>55.1</ele>
      </trkpt>
      <trkpt lat="48.54116" lon="-4.6568">
        <ele>54.9</ele>
      </trkpt>
      <trkpt lat="48.54039" lon="-4.65558">
        <ele>51.9</ele>
      </trkpt>
      <trkpt lat="48.53959" lon="-4.65458">
        <ele>49.2</ele>
      </trkpt>
      <trkpt lat="48.5392" lon="-4.65299">
        <ele>52.3</ele>
      </trkpt>
      <trkpt lat="48.53899" lon="-4.65172">
        <ele>53.2</ele>
      </trkpt>
      <trkpt lat="48.53843" lon="-4.64935">
        <ele>56</ele>
      </trkpt>
      <trkpt lat="48.53833" lon="-4.64824">
        <ele>56.8</ele>
      </trkpt>
      <trkpt lat="48.53854" lon="-4.64401">
        <ele>47.4</ele>
      </trkpt>
      <trkpt lat="48.5384" lon="-4.64205">
        <ele>50.6</ele>
      </trkpt>
      <trkpt lat="48.53724" lon="-4.63973">
        <ele>53.7</ele>
      </trkpt>
      <trkpt lat="48.5349" lon="-4.6383">
        <ele>60</ele>
      </trkpt>
      <trkpt lat="48.53434" lon="-4.63778">
        <ele>60</ele>
      </trkpt>
      <trkpt lat="48.5336" lon="-4.63593">
        <ele>60.7</ele>
      </trkpt>
      <trkpt lat="48.53322" lon="-4.63466">
        <ele>61.3</ele>
      </trkpt>
      <trkpt lat="48.53294" lon="-4.63313">
        <ele>64.1</ele>
      </trkpt>
      <trkpt lat="48.53283" lon="-4.63143">
        <ele>64.4</ele>
      </trkpt>
      <trkpt lat="48.53196" lon="-4.62959">
        <ele>63.3</ele>
      </trkpt>
      <trkpt lat="48.53168" lon="-4.62874">
        <ele>62.5</ele>
      </trkpt>
      <trkpt lat="48.5286" lon="-4.6308">
        <ele>65.3</ele>
      </trkpt>
      <trkpt lat="48.52759" lon="-4.63122">
        <ele>63.2</ele>
      </trkpt>
      <trkpt lat="48.52605" lon="-4.6317">
        <ele>59.2</ele>
      </trkpt>
      <trkpt lat="48.52419" lon="-4.6308">
        <ele>63</ele>
      </trkpt>
      <trkpt lat="48.52356" lon="-4.63054">
        <ele>64.9</ele>
      </trkpt>
      <trkpt lat="48.52153" lon="-4.62779">
        <ele>69.7</ele>
      </trkpt>
      <trkpt lat="48.51964" lon="-4.62488">
        <ele>73</ele>
      </trkpt>
      <trkpt lat="48.5188" lon="-4.62351">
        <ele>75.4</ele>
      </trkpt>
      <trkpt lat="48.5181" lon="-4.6214">
        <ele>75</ele>
      </trkpt>
      <trkpt lat="48.51723" lon="-4.61944">
        <ele>74.1</ele>
      </trkpt>
      <trkpt lat="48.51695" lon="-4.61838">
        <ele>76.2</ele>
      </trkpt>
      <trkpt lat="48.51646" lon="-4.61358">
        <ele>68.5</ele>
      </trkpt>
      <trkpt lat="48.5173" lon="-4.613">
        <ele>71</ele>
      </trkpt>
      <trkpt lat="48.51807" lon="-4.61226">
        <ele>70.3</ele>
      </trkpt>
      <trkpt lat="48.51901" lon="-4.61067">
        <ele>67.1</ele>
      </trkpt>
      <trkpt lat="48.51992" lon="-4.60903">
        <ele>68.8</ele>
      </trkpt>
      <trkpt lat="48.52104" lon="-4.60787">
        <ele>72.1</ele>
      </trkpt>
      <trkpt lat="48.52181" lon="-4.60671">
        <ele>72.5</ele>
      </trkpt>
      <trkpt lat="48.52216" lon="-4.60496">
        <ele>71.2</ele>
      </trkpt>
      <trkpt lat="48.523" lon="-4.60185">
        <ele>64.9</ele>
      </trkpt>
      <trkpt lat="48.52328" lon="-4.60084">
        <ele>63.1</ele>
      </trkpt>
      <trkpt lat="48.52398" lon="-4.6">
        <ele>62.2</ele>
      </trkpt>
      <trkpt lat="48.52465" lon="-4.59926">
        <ele>62.6</ele>
      </trkpt>
      <trkpt lat="48.52486" lon="-4.59836">
        <ele>60.1</ele>
      </trkpt>
      <trkpt lat="48.52419" lon="-4.5973">
        <ele>56.3</ele>
      </trkpt>
      <trkpt lat="48.52391" lon="-4.59635">
        <ele>51.7</ele>
      </trkpt>
      <trkpt lat="48.52367" lon="-4.59503">
        <ele>45.9</ele>
      </trkpt>
      <trkpt lat="48.52342" lon="-4.59408">
        <ele>46.4</ele>
      </trkpt>
      <trkpt lat="48.52342" lon="-4.59339">
        <ele>43.5</ele>
      </trkpt>
      <trkpt lat="48.5236" lon="-4.59271">
        <ele>39.4</ele>
      </trkpt>
      <trkpt lat="48.52398" lon="-4.59223">
        <ele>36.5</ele>
      </trkpt>
      <trkpt lat="48.52405" lon="-4.59181">
        <ele>32.2</ele>
      </trkpt>
      <trkpt lat="48.52374" lon="-4.59176">
        <ele>30.9</ele>
      </trkpt>
      <trkpt lat="48.52342" lon="-4.59191">
        <ele>31.6</ele>
      </trkpt>
      <trkpt lat="48.52314" lon="-4.59191">
        <ele>30.9</ele>
      </trkpt>
      <trkpt lat="48.5229" lon="-4.59075">
        <ele>27.4</ele>
      </trkpt>
      <trkpt lat="48.52335" lon="-4.59022">
        <ele>25.7</ele>
      </trkpt>
      <trkpt lat="48.52409" lon="-4.58853">
        <ele>24.1</ele>
      </trkpt>
      <trkpt lat="48.52423" lon="-4.58769">
        <ele>27.8</ele>
      </trkpt>
      <trkpt lat="48.52475" lon="-4.587">
        <ele>30.9</ele>
      </trkpt>
      <trkpt lat="48.52531" lon="-4.58658">
        <ele>35.8</ele>
      </trkpt>
      <trkpt lat="48.52598" lon="-4.58024">
        <ele>37.4</ele>
      </trkpt>
      <trkpt lat="48.52622" lon="-4.5796">
        <ele>37.5</ele>
      </trkpt>
      <trkpt lat="48.52633" lon="-4.57591">
        <ele>33.6</ele>
      </trkpt>
      <trkpt lat="48.5265" lon="-4.57237">
        <ele>43.1</ele>
      </trkpt>
      <trkpt lat="48.5244" lon="-4.573">
        <ele>41.7</ele>
      </trkpt>
      <trkpt lat="48.52328" lon="-4.57279">
        <ele>45.3</ele>
      </trkpt>
      <trkpt lat="48.52188" lon="-4.57242">
        <ele>55.5</ele>
      </trkpt>
      <trkpt lat="48.52206" lon="-4.56972">
        <ele>57.1</ele>
      </trkpt>
      <trkpt lat="48.52237" lon="-4.56449">
        <ele>64.4</ele>
      </trkpt>
      <trkpt lat="48.52251" lon="-4.56259">
        <ele>67</ele>
      </trkpt>
      <trkpt lat="48.52255" lon="-4.56079">
        <ele>66.7</ele>
      </trkpt>
      <trkpt lat="48.52276" lon="-4.55778">
        <ele>63.8</ele>
      </trkpt>
      <trkpt lat="48.52391" lon="-4.55234">
        <ele>60.9</ele>
      </trkpt>
      <trkpt lat="48.52479" lon="-4.54928">
        <ele>60.9</ele>
      </trkpt>
      <trkpt lat="48.52514" lon="-4.54796">
        <ele>61.9</ele>
      </trkpt>
      <trkpt lat="48.52545" lon="-4.54674">
        <ele>63</ele>
      </trkpt>
      <trkpt lat="48.52591" lon="-4.54558">
        <ele>64.3</ele>
      </trkpt>
      <trkpt lat="48.52696" lon="-4.54399">
        <ele>65.7</ele>
      </trkpt>
      <trkpt lat="48.52731" lon="-4.54299">
        <ele>65.8</ele>
      </trkpt>
      <trkpt lat="48.52818" lon="-4.54135">
        <ele>63.6</ele>
      </trkpt>
      <trkpt lat="48.52832" lon="-4.53749">
        <ele>63</ele>
      </trkpt>
      <trkpt lat="48.52863" lon="-4.53316">
        <ele>62.3</ele>
      </trkpt>
      <trkpt lat="48.52909" lon="-4.531">
        <ele>66.5</ele>
      </trkpt>
      <trkpt lat="48.52958" lon="-4.52893">
        <ele>56.4</ele>
      </trkpt>
      <trkpt lat="48.52993" lon="-4.52809">
        <ele>55.4</ele>
      </trkpt>
      <trkpt lat="48.53049" lon="-4.52677">
        <ele>53.4</ele>
      </trkpt>
      <trkpt lat="48.53084" lon="-4.52566">
        <ele>51.1</ele>
      </trkpt>
      <trkpt lat="48.53115" lon="-4.5237">
        <ele>44.9</ele>
      </trkpt>
      <trkpt lat="48.53143" lon="-4.52296">
        <ele>45.9</ele>
      </trkpt>
      <trkpt lat="48.53224" lon="-4.52201">
        <ele>50</ele>
      </trkpt>
      <trkpt lat="48.53304" lon="-4.52122">
        <ele>47</ele>
      </trkpt>
      <trkpt lat="48.53416" lon="-4.52032">
        <ele>38.7</ele>
      </trkpt>
      <trkpt lat="48.53458" lon="-4.51979">
        <ele>30.5</ele>
      </trkpt>
      <trkpt lat="48.53441" lon="-4.51874">
        <ele>27.2</ele>
      </trkpt>
      <trkpt lat="48.53416" lon="-4.51789">
        <ele>33.2</ele>
      </trkpt>
      <trkpt lat="48.53416" lon="-4.51668">
        <ele>42.9</ele>
      </trkpt>
      <trkpt lat="48.53343" lon="-4.51456">
        <ele>46.2</ele>
      </trkpt>
      <trkpt lat="48.53301" lon="-4.5124">
        <ele>46.2</ele>
      </trkpt>
      <trkpt lat="48.53255" lon="-4.51023">
        <ele>49.4</ele>
      </trkpt>
      <trkpt lat="48.53217" lon="-4.50917">
        <ele>50.6</ele>
      </trkpt>
      <trkpt lat="48.53171" lon="-4.50717">
        <ele>50.2</ele>
      </trkpt>
      <trkpt lat="48.53105" lon="-4.50563">
        <ele>52.6</ele>
      </trkpt>
      <trkpt lat="48.53105" lon="-4.50453">
        <ele>54.9</ele>
      </trkpt>
      <trkpt lat="48.53623" lon="-4.50479">
        <ele>48.6</ele>
      </trkpt>
      <trkpt lat="48.53721" lon="-4.50442">
        <ele>49.8</ele>
      </trkpt>
      <trkpt lat="48.53822" lon="-4.50384">
        <ele>48.2</ele>
      </trkpt>
      <trkpt lat="48.53847" lon="-4.50537">
        <ele>51.1</ele>
      </trkpt>
      <trkpt lat="48.53868" lon="-4.50622">
        <ele>50.6</ele>
      </trkpt>
      <trkpt lat="48.53931" lon="-4.51451">
        <ele>48.2</ele>
      </trkpt>
      <trkpt lat="48.54011" lon="-4.51699">
        <ele>45.8</ele>
      </trkpt>
      <trkpt lat="48.54158" lon="-4.51964">
        <ele>45.8</ele>
      </trkpt>
      <trkpt lat="48.54235" lon="-4.52249">
        <ele>38.7</ele>
      </trkpt>
      <trkpt lat="48.54322" lon="-4.52503">
        <ele>26.7</ele>
      </trkpt>
      <trkpt lat="48.54364" lon="-4.52624">
        <ele>23.4</ele>
      </trkpt>
      <trkpt lat="48.54515" lon="-4.52804">
        <ele>16</ele>
      </trkpt>
      <trkpt lat="48.5469" lon="-4.52973">
        <ele>14.9</ele>
      </trkpt>
      <trkpt lat="48.54763" lon="-4.5301">
        <ele>11</ele>
      </trkpt>
      <trkpt lat="48.54882" lon="-4.53015">
        <ele>6.2</ele>
      </trkpt>
      <trkpt lat="48.54952" lon="-4.53013">
        <ele>6.9</ele>
      </trkpt>
      <trkpt lat="48.55012" lon="-4.5296">
        <ele>9.1</ele>
      </trkpt>
      <trkpt lat="48.55007" lon="-4.52811">
        <ele>14.1</ele>
      </trkpt>
      <trkpt lat="48.54873" lon="-4.52609">
        <ele>24.6</ele>
      </trkpt>
      <trkpt lat="48.54873" lon="-4.52385">
        <ele>32.5</ele>
      </trkpt>
      <trkpt lat="48.54824" lon="-4.52146">
        <ele>37.7</ele>
      </trkpt>
      <trkpt lat="48.54873" lon="-4.51884">
        <ele>35.7</ele>
      </trkpt>
      <trkpt lat="48.54804" lon="-4.51757">
        <ele>31.5</ele>
      </trkpt>
      <trkpt lat="48.5467" lon="-4.51443">
        <ele>29.5</ele>
      </trkpt>
      <trkpt lat="48.54646" lon="-4.51324">
        <ele>33.2</ele>
      </trkpt>
      <trkpt lat="48.54843" lon="-4.51197">
        <ele>31.6</ele>
      </trkpt>
      <trkpt lat="48.54833" lon="-4.51047">
        <ele>29.2</ele>
      </trkpt>
      <trkpt lat="48.54754" lon="-4.50988">
        <ele>30.9</ele>
      </trkpt>
      <trkpt lat="48.54616" lon="-4.50868">
        <ele>26.2</ele>
      </trkpt>
      <trkpt lat="48.54571" lon="-4.50726">
        <ele>22.5</ele>
      </trkpt>
      <trkpt lat="48.54576" lon="-4.50487">
        <ele>8.1</ele>
      </trkpt>
      <trkpt lat="48.54707" lon="-4.50558">
        <ele>10.1</ele>
      </trkpt>
      <trkpt lat="48.54805" lon="-4.50664">
        <ele>10.6</ele>
      </trkpt>
      <trkpt lat="48.54872" lon="-4.5077">
        <ele>9.5</ele>
      </trkpt>
      <trkpt lat="48.54917" lon="-4.50817">
        <ele>7</ele>
      </trkpt>
      <trkpt lat="48.54969" lon="-4.50833">
        <ele>4.4</ele>
      </trkpt>
      <trkpt lat="48.55001" lon="-4.50775">
        <ele>12.4</ele>
      </trkpt>
      <trkpt lat="48.54903" lon="-4.50722">
        <ele>17.2</ele>
      </trkpt>
      <trkpt lat="48.54969" lon="-4.50674">
        <ele>25.6</ele>
      </trkpt>
      <trkpt lat="48.55043" lon="-4.50516">
        <ele>35.6</ele>
      </trkpt>
      <trkpt lat="48.55057" lon="-4.50357">
        <ele>39.2</ele>
      </trkpt>
      <trkpt lat="48.5505" lon="-4.50178">
        <ele>42.6</ele>
      </trkpt>
      <trkpt lat="48.55064" lon="-4.50019">
        <ele>42.1</ele>
      </trkpt>
      <trkpt lat="48.55001" lon="-4.49813">
        <ele>42</ele>
      </trkpt>
      <trkpt lat="48.54987" lon="-4.49475">
        <ele>43.8</ele>
      </trkpt>
      <trkpt lat="48.55158" lon="-4.49713">
        <ele>37.7</ele>
      </trkpt>
      <trkpt lat="48.55253" lon="-4.49782">
        <ele>25.3</ele>
      </trkpt>
      <trkpt lat="48.55242" lon="-4.49882">
        <ele>18.9</ele>
      </trkpt>
      <trkpt lat="48.55232" lon="-4.50025">
        <ele>17.5</ele>
      </trkpt>
      <trkpt lat="48.55228" lon="-4.50146">
        <ele>17.5</ele>
      </trkpt>
      <trkpt lat="48.55228" lon="-4.50188">
        <ele>17.2</ele>
      </trkpt>
      <trkpt lat="48.55323" lon="-4.50178">
        <ele>18.6</ele>
      </trkpt>
      <trkpt lat="48.55515" lon="-4.50416">
        <ele>32.2</ele>
      </trkpt>
      <trkpt lat="48.55585" lon="-4.50458">
        <ele>32.6</ele>
      </trkpt>
      <trkpt lat="48.55627" lon="-4.50558">
        <ele>34.3</ele>
      </trkpt>
      <trkpt lat="48.55742" lon="-4.50674">
        <ele>39.4</ele>
      </trkpt>
      <trkpt lat="48.5598" lon="-4.50954">
        <ele>40.9</ele>
      </trkpt>
      <trkpt lat="48.56137" lon="-4.5125">
        <ele>37.6</ele>
      </trkpt>
      <trkpt lat="48.56186" lon="-4.51377">
        <ele>35.1</ele>
      </trkpt>
      <trkpt lat="48.56295" lon="-4.51588">
        <ele>27.3</ele>
      </trkpt>
      <trkpt lat="48.56407" lon="-4.51662">
        <ele>28.5</ele>
      </trkpt>
      <trkpt lat="48.56547" lon="-4.51684">
        <ele>37.3</ele>
      </trkpt>
      <trkpt lat="48.56669" lon="-4.51816">
        <ele>43.3</ele>
      </trkpt>
      <trkpt lat="48.56742" lon="-4.51895">
        <ele>43.9</ele>
      </trkpt>
      <trkpt lat="48.56819" lon="-4.52016">
        <ele>46.9</ele>
      </trkpt>
      <trkpt lat="48.56861" lon="-4.52138">
        <ele>44.8</ele>
      </trkpt>
      <trkpt lat="48.56917" lon="-4.52143">
        <ele>47</ele>
      </trkpt>
      <trkpt lat="48.56952" lon="-4.52212">
        <ele>46.2</ele>
      </trkpt>
      <trkpt lat="48.57008" lon="-4.52196">
        <ele>46.1</ele>
      </trkpt>
      <trkpt lat="48.57137" lon="-4.5237">
        <ele>40.9</ele>
      </trkpt>
      <trkpt lat="48.57186" lon="-4.52407">
        <ele>40.8</ele>
      </trkpt>
      <trkpt lat="48.57267" lon="-4.52872">
        <ele>46.2</ele>
      </trkpt>
      <trkpt lat="48.5733" lon="-4.53174">
        <ele>47</ele>
      </trkpt>
      <trkpt lat="48.57389" lon="-4.53427">
        <ele>49</ele>
      </trkpt>
      <trkpt lat="48.57365" lon="-4.5385">
        <ele>47.2</ele>
      </trkpt>
      <trkpt lat="48.57417" lon="-4.53987">
        <ele>47</ele>
      </trkpt>
      <trkpt lat="48.57509" lon="-4.54126">
        <ele>46.4</ele>
      </trkpt>
      <trkpt lat="48.57603" lon="-4.545">
        <ele>41.5</ele>
      </trkpt>
      <trkpt lat="48.57642" lon="-4.54627">
        <ele>41.7</ele>
      </trkpt>
      <trkpt lat="48.57786" lon="-4.54798">
        <ele>44</ele>
      </trkpt>
      <trkpt lat="48.57855" lon="-4.5509">
        <ele>44.3</ele>
      </trkpt>
      <trkpt lat="48.57934" lon="-4.55314">
        <ele>44.5</ele>
      </trkpt>
      <trkpt lat="48.58038" lon="-4.55478">
        <ele>45.6</ele>
      </trkpt>
      <trkpt lat="48.58161" lon="-4.55501">
        <ele>45.1</ele>
      </trkpt>
      <trkpt lat="48.58349" lon="-4.55501">
        <ele>44.8</ele>
      </trkpt>
      <trkpt lat="48.58359" lon="-4.55792">
        <ele>42.7</ele>
      </trkpt>
      <trkpt lat="48.58389" lon="-4.56061">
        <ele>39.2</ele>
      </trkpt>
      <trkpt lat="48.58478" lon="-4.5627">
        <ele>41.2</ele>
      </trkpt>
      <trkpt lat="48.58537" lon="-4.5642">
        <ele>43.3</ele>
      </trkpt>
      <trkpt lat="48.58577" lon="-4.56644">
        <ele>44.1</ele>
      </trkpt>
      <trkpt lat="48.58536" lon="-4.56682">
        <ele>44.5</ele>
      </trkpt>
      <trkpt lat="48.58501" lon="-4.56782">
        <ele>43.6</ele>
      </trkpt>
      <trkpt lat="48.58333" lon="-4.56867">
        <ele>45.4</ele>
      </trkpt>
      <trkpt lat="48.582" lon="-4.57041">
        <ele>45.8</ele>
      </trkpt>
      <trkpt lat="48.58116" lon="-4.57004">
        <ele>45.4</ele>
      </trkpt>
      <trkpt lat="48.57994" lon="-4.57009">
        <ele>46.9</ele>
      </trkpt>
      <trkpt lat="48.57819" lon="-4.57025">
        <ele>46.8</ele>
      </trkpt>
      <trkpt lat="48.5792" lon="-4.57258">
        <ele>48</ele>
      </trkpt>
      <trkpt lat="48.58088" lon="-4.57522">
        <ele>47</ele>
      </trkpt>
      <trkpt lat="48.58088" lon="-4.57675">
        <ele>48.1</ele>
      </trkpt>
      <trkpt lat="48.58176" lon="-4.57749">
        <ele>51.1</ele>
      </trkpt>
      <trkpt lat="48.58239" lon="-4.57812">
        <ele>52.6</ele>
      </trkpt>
      <trkpt lat="48.58305" lon="-4.57897">
        <ele>51.4</ele>
      </trkpt>
      <trkpt lat="48.58326" lon="-4.57966">
        <ele>51</ele>
      </trkpt>
      <trkpt lat="48.58361" lon="-4.5796">
        <ele>50.8</ele>
      </trkpt>
      <trkpt lat="48.58368" lon="-4.58066">
        <ele>50.6</ele>
      </trkpt>
      <trkpt lat="48.58385" lon="-4.58066">
        <ele>50.4</ele>
      </trkpt>
      <trkpt lat="48.58469" lon="-4.58209">
        <ele>48.4</ele>
      </trkpt>
      <trkpt lat="48.58518" lon="-4.58325">
        <ele>46.6</ele>
      </trkpt>
      <trkpt lat="48.58557" lon="-4.58489">
        <ele>45.1</ele>
      </trkpt>
      <trkpt lat="48.58473" lon="-4.58415">
        <ele>47</ele>
      </trkpt>
      <trkpt lat="48.58595" lon="-4.5851">
        <ele>43.7</ele>
      </trkpt>
      <trkpt lat="48.58651" lon="-4.58494">
        <ele>42.4</ele>
      </trkpt>
      <trkpt lat="48.58682" lon="-4.58478">
        <ele>41.8</ele>
      </trkpt>
      <trkpt lat="48.58735" lon="-4.58483">
        <ele>41</ele>
      </trkpt>
      <trkpt lat="48.58763" lon="-4.58515">
        <ele>41.4</ele>
      </trkpt>
      <trkpt lat="48.58777" lon="-4.58616">
        <ele>43.2</ele>
      </trkpt>
      <trkpt lat="48.58801" lon="-4.58721">
        <ele>44.6</ele>
      </trkpt>
      <trkpt lat="48.58843" lon="-4.58758">
        <ele>45.6</ele>
      </trkpt>
      <trkpt lat="48.58885" lon="-4.588">
        <ele>43.8</ele>
      </trkpt>
      <trkpt lat="48.58902" lon="-4.58848">
        <ele>42.2</ele>
      </trkpt>
      <trkpt lat="48.58934" lon="-4.58893">
        <ele>38.9</ele>
      </trkpt>
      <trkpt lat="48.58944" lon="-4.58968">
        <ele>36.8</ele>
      </trkpt>
      <trkpt lat="48.58954" lon="-4.59072">
        <ele>35.8</ele>
      </trkpt>
      <trkpt lat="48.58956" lon="-4.59181">
        <ele>33.2</ele>
      </trkpt>
      <trkpt lat="48.58944" lon="-4.59297">
        <ele>30</ele>
      </trkpt>
      <trkpt lat="48.58929" lon="-4.59409">
        <ele>26.6</ele>
      </trkpt>
      <trkpt lat="48.58941" lon="-4.59498">
        <ele>23.8</ele>
      </trkpt>
      <trkpt lat="48.59016" lon="-4.59566">
        <ele>17.9</ele>
      </trkpt>
      <trkpt lat="48.59065" lon="-4.59663">
        <ele>11.2</ele>
      </trkpt>
      <trkpt lat="48.59132" lon="-4.59741">
        <ele>7.9</ele>
      </trkpt>
      <trkpt lat="48.59159" lon="-4.5979">
        <ele>7.1</ele>
      </trkpt>
      <trkpt lat="48.59258" lon="-4.59696">
        <ele>4</ele>
      </trkpt>
      <trkpt lat="48.5931" lon="-4.59599">
        <ele>4.1</ele>
      </trkpt>
      <trkpt lat="48.5932" lon="-4.5958">
        <ele>4</ele>
      </trkpt>
      <trkpt lat="48.59361" lon="-4.59597">
        <ele>4.1</ele>
      </trkpt>
      <trkpt lat="48.59416" lon="-4.59604">
        <ele>4</ele>
      </trkpt>
      <trkpt lat="48.59471" lon="-4.59558">
        <ele>4.1</ele>
      </trkpt>
      <trkpt lat="48.59506" lon="-4.59489">
        <ele>1.6</ele>
      </trkpt>
      <trkpt lat="48.59577" lon="-4.59471">
        <ele>7.4</ele>
      </trkpt>
      <trkpt lat="48.59646" lon="-4.59398">
        <ele>6.27</ele>
      </trkpt>
      <trkpt lat="48.59686" lon="-4.5937">
        <ele>6.55</ele>
      </trkpt>
      <trkpt lat="48.59805" lon="-4.59423">
        <ele>5.8</ele>
      </trkpt>
      <trkpt lat="48.59833" lon="-4.59489">
        <ele>6.9</ele>
      </trkpt>
      <trkpt lat="48.59923" lon="-4.59646">
        <ele>10.1</ele>
      </trkpt>
      <trkpt lat="48.59978" lon="-4.59764">
        <ele>11</ele>
      </trkpt>
      <trkpt lat="48.60015" lon="-4.599">
        <ele>10</ele>
      </trkpt>
      <trkpt lat="48.60075" lon="-4.60039">
        <ele>10.4</ele>
      </trkpt>
      <trkpt lat="48.60119" lon="-4.60123">
        <ele>11</ele>
      </trkpt>
      <trkpt lat="48.6017" lon="-4.60127">
        <ele>10.5</ele>
      </trkpt>
      <trkpt lat="48.60232" lon="-4.60168">
        <ele>9.4</ele>
      </trkpt>
      <trkpt lat="48.6029" lon="-4.60189">
        <ele>8.3</ele>
      </trkpt>
      <trkpt lat="48.60322" lon="-4.60304">
        <ele>6.4</ele>
      </trkpt>
      <trkpt lat="48.60368" lon="-4.60242">
        <ele>6.5</ele>
      </trkpt>
      <trkpt lat="48.60416" lon="-4.60148">
        <ele>6.5</ele>
      </trkpt>
      <trkpt lat="48.6046" lon="-4.60092">
        <ele>7.6</ele>
      </trkpt>
      <trkpt lat="48.60513" lon="-4.60043">
        <ele>7.7</ele>
      </trkpt>
      <trkpt lat="48.60536" lon="-4.59987">
        <ele>8.1</ele>
      </trkpt>
      <trkpt lat="48.6052" lon="-4.59879">
        <ele>12.6</ele>
      </trkpt>
      <trkpt lat="48.60495" lon="-4.5982">
        <ele>15.2</ele>
      </trkpt>
      <trkpt lat="48.60539" lon="-4.59775">
        <ele>15.2</ele>
      </trkpt>
    </trkseg>
  </trk>
</gpx>